<?xml version="1.0" encoding="UTF-8" standalone="no" ?>
<gpx xmlns="http://www.topografix.com/GPX/1/1" xmlns:xsi="http://www.w3.org/2001/XMLSchema-instance" xsi:schemaLocation="http://www.topografix.com/GPX/1/1 http://www.topografix.com/GPX/1/1/gpx.xsd" version="1.1" creator="VisuGPX - https://www.visugpx.com">
  <metadata>
    <name>Le Pic de l\'Aigle</name>
    <desc><![CDATA[Randonnée dans le Jura]]></desc>
  </metadata>
  <trk>
    <name><![CDATA[3 sept. 2014 10:20:58]]></name>
    <cmt><![CDATA[3 sept. 2014 10:20:58]]></cmt>
    <trkseg>
      <trkpt lat="46.60962" lon="5.90424">
        <ele>890</ele>
        <time>2014-09-03T08:20:58Z</time>
      </trkpt>
      <trkpt lat="46.60966" lon="5.90416">
        <ele>892</ele>
        <time>2014-09-03T08:21:26Z</time>
      </trkpt>
      <trkpt lat="46.6097" lon="5.90415">
        <ele>893</ele>
        <time>2014-09-03T08:21:31Z</time>
      </trkpt>
      <trkpt lat="46.60983" lon="5.90406">
        <ele>896</ele>
        <time>2014-09-03T08:21:46Z</time>
      </trkpt>
      <trkpt lat="46.60987" lon="5.90404">
        <ele>896</ele>
        <time>2014-09-03T08:21:51Z</time>
      </trkpt>
      <trkpt lat="46.60992" lon="5.90403">
        <ele>897</ele>
        <time>2014-09-03T08:22:00Z</time>
      </trkpt>
      <trkpt lat="46.60996" lon="5.90407">
        <ele>897</ele>
        <time>2014-09-03T08:22:04Z</time>
      </trkpt>
      <trkpt lat="46.61" lon="5.90411">
        <ele>898</ele>
        <time>2014-09-03T08:22:10Z</time>
      </trkpt>
      <trkpt lat="46.61004" lon="5.90409">
        <ele>900</ele>
        <time>2014-09-03T08:22:49Z</time>
      </trkpt>
      <trkpt lat="46.61006" lon="5.904">
        <ele>900</ele>
        <time>2014-09-03T08:23:02Z</time>
      </trkpt>
      <trkpt lat="46.6101" lon="5.90396">
        <ele>900</ele>
        <time>2014-09-03T08:23:11Z</time>
      </trkpt>
      <trkpt lat="46.61027" lon="5.90392">
        <ele>904</ele>
        <time>2014-09-03T08:23:42Z</time>
      </trkpt>
      <trkpt lat="46.61032" lon="5.90394">
        <ele>902</ele>
        <time>2014-09-03T08:23:49Z</time>
      </trkpt>
      <trkpt lat="46.61037" lon="5.90396">
        <ele>902</ele>
        <time>2014-09-03T08:23:55Z</time>
      </trkpt>
      <trkpt lat="46.61042" lon="5.90397">
        <ele>903</ele>
        <time>2014-09-03T08:23:59Z</time>
      </trkpt>
      <trkpt lat="46.61052" lon="5.90396">
        <ele>906</ele>
        <time>2014-09-03T08:24:10Z</time>
      </trkpt>
      <trkpt lat="46.61057" lon="5.90396">
        <ele>906</ele>
        <time>2014-09-03T08:24:17Z</time>
      </trkpt>
      <trkpt lat="46.61059" lon="5.90394">
        <ele>906</ele>
        <time>2014-09-03T08:24:23Z</time>
      </trkpt>
      <trkpt lat="46.61063" lon="5.90399">
        <ele>907</ele>
        <time>2014-09-03T08:25:49Z</time>
      </trkpt>
      <trkpt lat="46.6107" lon="5.90408">
        <ele>906</ele>
        <time>2014-09-03T08:25:59Z</time>
      </trkpt>
      <trkpt lat="46.61074" lon="5.90411">
        <ele>906</ele>
        <time>2014-09-03T08:26:04Z</time>
      </trkpt>
      <trkpt lat="46.61098" lon="5.90416">
        <ele>910</ele>
        <time>2014-09-03T08:26:33Z</time>
      </trkpt>
      <trkpt lat="46.61103" lon="5.9042">
        <ele>910</ele>
        <time>2014-09-03T08:26:38Z</time>
      </trkpt>
      <trkpt lat="46.61113" lon="5.9042">
        <ele>910</ele>
        <time>2014-09-03T08:26:49Z</time>
      </trkpt>
      <trkpt lat="46.61126" lon="5.90414">
        <ele>911</ele>
        <time>2014-09-03T08:27:08Z</time>
      </trkpt>
      <trkpt lat="46.61135" lon="5.9041">
        <ele>911</ele>
        <time>2014-09-03T08:27:20Z</time>
      </trkpt>
      <trkpt lat="46.6114" lon="5.90407">
        <ele>912</ele>
        <time>2014-09-03T08:27:24Z</time>
      </trkpt>
      <trkpt lat="46.61144" lon="5.90403">
        <ele>912</ele>
        <time>2014-09-03T08:27:30Z</time>
      </trkpt>
      <trkpt lat="46.61147" lon="5.90398">
        <ele>914</ele>
        <time>2014-09-03T08:27:37Z</time>
      </trkpt>
      <trkpt lat="46.61166" lon="5.90394">
        <ele>918</ele>
        <time>2014-09-03T08:28:00Z</time>
      </trkpt>
      <trkpt lat="46.61171" lon="5.90396">
        <ele>919</ele>
        <time>2014-09-03T08:28:05Z</time>
      </trkpt>
      <trkpt lat="46.61177" lon="5.90396">
        <ele>919</ele>
        <time>2014-09-03T08:28:10Z</time>
      </trkpt>
      <trkpt lat="46.61181" lon="5.90393">
        <ele>919</ele>
        <time>2014-09-03T08:28:15Z</time>
      </trkpt>
      <trkpt lat="46.61191" lon="5.90389">
        <ele>921</ele>
        <time>2014-09-03T08:28:28Z</time>
      </trkpt>
      <trkpt lat="46.61195" lon="5.90385">
        <ele>920</ele>
        <time>2014-09-03T08:28:33Z</time>
      </trkpt>
      <trkpt lat="46.61207" lon="5.90371">
        <ele>925</ele>
        <time>2014-09-03T08:28:49Z</time>
      </trkpt>
      <trkpt lat="46.61214" lon="5.90362">
        <ele>923</ele>
        <time>2014-09-03T08:29:04Z</time>
      </trkpt>
      <trkpt lat="46.61219" lon="5.90359">
        <ele>923</ele>
        <time>2014-09-03T08:29:10Z</time>
      </trkpt>
      <trkpt lat="46.61224" lon="5.90357">
        <ele>921</ele>
        <time>2014-09-03T08:29:15Z</time>
      </trkpt>
      <trkpt lat="46.61228" lon="5.90356">
        <ele>921</ele>
        <time>2014-09-03T08:29:20Z</time>
      </trkpt>
      <trkpt lat="46.61233" lon="5.90354">
        <ele>923</ele>
        <time>2014-09-03T08:29:28Z</time>
      </trkpt>
      <trkpt lat="46.61238" lon="5.90353">
        <ele>922</ele>
        <time>2014-09-03T08:29:35Z</time>
      </trkpt>
      <trkpt lat="46.61249" lon="5.9035">
        <ele>924</ele>
        <time>2014-09-03T08:29:47Z</time>
      </trkpt>
      <trkpt lat="46.61254" lon="5.90356">
        <ele>922</ele>
        <time>2014-09-03T08:29:55Z</time>
      </trkpt>
      <trkpt lat="46.61261" lon="5.90362">
        <ele>922</ele>
        <time>2014-09-03T08:30:03Z</time>
      </trkpt>
      <trkpt lat="46.61266" lon="5.90361">
        <ele>922</ele>
        <time>2014-09-03T08:30:08Z</time>
      </trkpt>
      <trkpt lat="46.61277" lon="5.90363">
        <ele>926</ele>
        <time>2014-09-03T08:30:19Z</time>
      </trkpt>
      <trkpt lat="46.61282" lon="5.90364">
        <ele>925</ele>
        <time>2014-09-03T08:30:26Z</time>
      </trkpt>
      <trkpt lat="46.61287" lon="5.90362">
        <ele>926</ele>
        <time>2014-09-03T08:30:36Z</time>
      </trkpt>
      <trkpt lat="46.61291" lon="5.90358">
        <ele>928</ele>
        <time>2014-09-03T08:30:45Z</time>
      </trkpt>
      <trkpt lat="46.61308" lon="5.90332">
        <ele>933</ele>
        <time>2014-09-03T08:31:21Z</time>
      </trkpt>
      <trkpt lat="46.61312" lon="5.90332">
        <ele>933</ele>
        <time>2014-09-03T08:31:28Z</time>
      </trkpt>
      <trkpt lat="46.61321" lon="5.9033">
        <ele>932</ele>
        <time>2014-09-03T08:31:42Z</time>
      </trkpt>
      <trkpt lat="46.61325" lon="5.90334">
        <ele>931</ele>
        <time>2014-09-03T08:31:48Z</time>
      </trkpt>
      <trkpt lat="46.61334" lon="5.90338">
        <ele>931</ele>
        <time>2014-09-03T08:31:57Z</time>
      </trkpt>
      <trkpt lat="46.61349" lon="5.90337">
        <ele>934</ele>
        <time>2014-09-03T08:32:12Z</time>
      </trkpt>
      <trkpt lat="46.61352" lon="5.90332">
        <ele>937</ele>
        <time>2014-09-03T08:32:20Z</time>
      </trkpt>
      <trkpt lat="46.61359" lon="5.90322">
        <ele>937</ele>
        <time>2014-09-03T08:32:36Z</time>
      </trkpt>
      <trkpt lat="46.61361" lon="5.90316">
        <ele>939</ele>
        <time>2014-09-03T08:32:44Z</time>
      </trkpt>
      <trkpt lat="46.61362" lon="5.90309">
        <ele>938</ele>
        <time>2014-09-03T08:32:52Z</time>
      </trkpt>
      <trkpt lat="46.61371" lon="5.90293">
        <ele>941</ele>
        <time>2014-09-03T08:33:10Z</time>
      </trkpt>
      <trkpt lat="46.61381" lon="5.90298">
        <ele>950</ele>
        <time>2014-09-03T08:33:32Z</time>
      </trkpt>
      <trkpt lat="46.61386" lon="5.90299">
        <ele>950</ele>
        <time>2014-09-03T08:33:44Z</time>
      </trkpt>
      <trkpt lat="46.61392" lon="5.90294">
        <ele>941</ele>
        <time>2014-09-03T08:34:17Z</time>
      </trkpt>
      <trkpt lat="46.61395" lon="5.90289">
        <ele>941</ele>
        <time>2014-09-03T08:34:24Z</time>
      </trkpt>
      <trkpt lat="46.61399" lon="5.90279">
        <ele>944</ele>
        <time>2014-09-03T08:34:38Z</time>
      </trkpt>
      <trkpt lat="46.61408" lon="5.90278">
        <ele>952</ele>
        <time>2014-09-03T08:35:14Z</time>
      </trkpt>
      <trkpt lat="46.61411" lon="5.90274">
        <ele>953</ele>
        <time>2014-09-03T08:35:25Z</time>
      </trkpt>
      <trkpt lat="46.61417" lon="5.90271">
        <ele>954</ele>
        <time>2014-09-03T08:35:41Z</time>
      </trkpt>
      <trkpt lat="46.61425" lon="5.90274">
        <ele>962</ele>
        <time>2014-09-03T08:35:56Z</time>
      </trkpt>
      <trkpt lat="46.61432" lon="5.9028">
        <ele>961</ele>
        <time>2014-09-03T08:36:24Z</time>
      </trkpt>
      <trkpt lat="46.61433" lon="5.90284">
        <ele>961</ele>
        <time>2014-09-03T08:36:31Z</time>
      </trkpt>
      <trkpt lat="46.61431" lon="5.90273">
        <ele>960</ele>
        <time>2014-09-03T08:37:12Z</time>
      </trkpt>
      <trkpt lat="46.6143" lon="5.90265">
        <ele>960</ele>
        <time>2014-09-03T08:37:20Z</time>
      </trkpt>
      <trkpt lat="46.61428" lon="5.90258">
        <ele>960</ele>
        <time>2014-09-03T08:37:27Z</time>
      </trkpt>
      <trkpt lat="46.61428" lon="5.90253">
        <ele>960</ele>
        <time>2014-09-03T08:37:37Z</time>
      </trkpt>
      <trkpt lat="46.61439" lon="5.90235">
        <ele>968</ele>
        <time>2014-09-03T08:38:11Z</time>
      </trkpt>
      <trkpt lat="46.61453" lon="5.90216">
        <ele>981</ele>
        <time>2014-09-03T08:38:43Z</time>
      </trkpt>
      <trkpt lat="46.61457" lon="5.90217">
        <ele>978</ele>
        <time>2014-09-03T08:39:12Z</time>
      </trkpt>
      <trkpt lat="46.6146" lon="5.90216">
        <ele>975</ele>
        <time>2014-09-03T08:39:41Z</time>
      </trkpt>
      <trkpt lat="46.61465" lon="5.90212">
        <ele>980</ele>
        <time>2014-09-03T08:40:25Z</time>
      </trkpt>
      <trkpt lat="46.61467" lon="5.90208">
        <ele>980</ele>
        <time>2014-09-03T08:40:37Z</time>
      </trkpt>
      <trkpt lat="46.61463" lon="5.90203">
        <ele>981</ele>
        <time>2014-09-03T08:40:51Z</time>
      </trkpt>
      <trkpt lat="46.61464" lon="5.90196">
        <ele>985</ele>
        <time>2014-09-03T08:41:38Z</time>
      </trkpt>
      <trkpt lat="46.61466" lon="5.90195">
        <ele>986</ele>
        <time>2014-09-03T08:42:51Z</time>
      </trkpt>
      <trkpt lat="46.61465" lon="5.90205">
        <ele>986</ele>
        <time>2014-09-03T08:43:21Z</time>
      </trkpt>
      <trkpt lat="46.61468" lon="5.90203">
        <ele>985</ele>
        <time>2014-09-03T08:43:33Z</time>
      </trkpt>
      <trkpt lat="46.61473" lon="5.90199">
        <ele>987</ele>
        <time>2014-09-03T08:43:57Z</time>
      </trkpt>
      <trkpt lat="46.6147" lon="5.90203">
        <ele>983</ele>
        <time>2014-09-03T08:47:24Z</time>
      </trkpt>
      <trkpt lat="46.61465" lon="5.90205">
        <ele>983</ele>
        <time>2014-09-03T08:47:33Z</time>
      </trkpt>
      <trkpt lat="46.61461" lon="5.90204">
        <ele>983</ele>
        <time>2014-09-03T08:47:41Z</time>
      </trkpt>
      <trkpt lat="46.61465" lon="5.90205">
        <ele>985</ele>
        <time>2014-09-03T08:48:32Z</time>
      </trkpt>
      <trkpt lat="46.61469" lon="5.90208">
        <ele>985</ele>
        <time>2014-09-03T08:48:39Z</time>
      </trkpt>
      <trkpt lat="46.6148" lon="5.90213">
        <ele>982</ele>
        <time>2014-09-03T08:48:59Z</time>
      </trkpt>
      <trkpt lat="46.61485" lon="5.90219">
        <ele>987</ele>
        <time>2014-09-03T08:49:10Z</time>
      </trkpt>
      <trkpt lat="46.61487" lon="5.90224">
        <ele>989</ele>
        <time>2014-09-03T08:49:20Z</time>
      </trkpt>
      <trkpt lat="46.61483" lon="5.90229">
        <ele>991</ele>
        <time>2014-09-03T08:49:51Z</time>
      </trkpt>
      <trkpt lat="46.61477" lon="5.9023">
        <ele>992</ele>
        <time>2014-09-03T08:49:57Z</time>
      </trkpt>
      <trkpt lat="46.61475" lon="5.9023">
        <ele>993</ele>
        <time>2014-09-03T08:50:08Z</time>
      </trkpt>
      <trkpt lat="46.61477" lon="5.90229">
        <ele>996</ele>
        <time>2014-09-03T08:53:19Z</time>
      </trkpt>
      <trkpt lat="46.61488" lon="5.90221">
        <ele>991</ele>
        <time>2014-09-03T08:53:48Z</time>
      </trkpt>
      <trkpt lat="46.61485" lon="5.90224">
        <ele>990</ele>
        <time>2014-09-03T08:54:11Z</time>
      </trkpt>
      <trkpt lat="46.61481" lon="5.90227">
        <ele>991</ele>
        <time>2014-09-03T08:54:27Z</time>
      </trkpt>
      <trkpt lat="46.61474" lon="5.9023">
        <ele>992</ele>
        <time>2014-09-03T08:54:45Z</time>
      </trkpt>
      <trkpt lat="46.61476" lon="5.90234">
        <ele>990</ele>
        <time>2014-09-03T08:54:57Z</time>
      </trkpt>
      <trkpt lat="46.61483" lon="5.90236">
        <ele>989</ele>
        <time>2014-09-03T08:55:05Z</time>
      </trkpt>
      <trkpt lat="46.61489" lon="5.9024">
        <ele>989</ele>
        <time>2014-09-03T08:55:13Z</time>
      </trkpt>
      <trkpt lat="46.61495" lon="5.90243">
        <ele>990</ele>
        <time>2014-09-03T08:55:21Z</time>
      </trkpt>
      <trkpt lat="46.61511" lon="5.90264">
        <ele>996</ele>
        <time>2014-09-03T08:55:51Z</time>
      </trkpt>
      <trkpt lat="46.61509" lon="5.90271">
        <ele>997</ele>
        <time>2014-09-03T08:56:01Z</time>
      </trkpt>
      <trkpt lat="46.61515" lon="5.90274">
        <ele>994</ele>
        <time>2014-09-03T08:56:19Z</time>
      </trkpt>
      <trkpt lat="46.61525" lon="5.90279">
        <ele>994</ele>
        <time>2014-09-03T08:56:30Z</time>
      </trkpt>
      <trkpt lat="46.61528" lon="5.90284">
        <ele>994</ele>
        <time>2014-09-03T08:56:36Z</time>
      </trkpt>
      <trkpt lat="46.61533" lon="5.90293">
        <ele>995</ele>
        <time>2014-09-03T08:56:50Z</time>
      </trkpt>
      <trkpt lat="46.6154" lon="5.90304">
        <ele>994</ele>
        <time>2014-09-03T08:57:12Z</time>
      </trkpt>
      <trkpt lat="46.61548" lon="5.90316">
        <ele>995</ele>
        <time>2014-09-03T08:57:22Z</time>
      </trkpt>
      <trkpt lat="46.61555" lon="5.90324">
        <ele>997</ele>
        <time>2014-09-03T08:57:35Z</time>
      </trkpt>
      <trkpt lat="46.61558" lon="5.90329">
        <ele>997</ele>
        <time>2014-09-03T08:57:45Z</time>
      </trkpt>
      <trkpt lat="46.61561" lon="5.90334">
        <ele>997</ele>
        <time>2014-09-03T08:57:57Z</time>
      </trkpt>
      <trkpt lat="46.61564" lon="5.9034">
        <ele>998</ele>
        <time>2014-09-03T08:58:02Z</time>
      </trkpt>
      <trkpt lat="46.61568" lon="5.90344">
        <ele>996</ele>
        <time>2014-09-03T08:58:08Z</time>
      </trkpt>
      <trkpt lat="46.61573" lon="5.90343">
        <ele>994</ele>
        <time>2014-09-03T08:58:14Z</time>
      </trkpt>
      <trkpt lat="46.61576" lon="5.90349">
        <ele>990</ele>
        <time>2014-09-03T08:58:22Z</time>
      </trkpt>
      <trkpt lat="46.61578" lon="5.90355">
        <ele>987</ele>
        <time>2014-09-03T08:58:27Z</time>
      </trkpt>
      <trkpt lat="46.61584" lon="5.90365">
        <ele>987</ele>
        <time>2014-09-03T08:58:36Z</time>
      </trkpt>
      <trkpt lat="46.61591" lon="5.90374">
        <ele>990</ele>
        <time>2014-09-03T08:58:48Z</time>
      </trkpt>
      <trkpt lat="46.61595" lon="5.90383">
        <ele>989</ele>
        <time>2014-09-03T08:58:56Z</time>
      </trkpt>
      <trkpt lat="46.61598" lon="5.9039">
        <ele>988</ele>
        <time>2014-09-03T08:59:02Z</time>
      </trkpt>
      <trkpt lat="46.61615" lon="5.90406">
        <ele>987</ele>
        <time>2014-09-03T08:59:32Z</time>
      </trkpt>
      <trkpt lat="46.61619" lon="5.90411">
        <ele>988</ele>
        <time>2014-09-03T08:59:38Z</time>
      </trkpt>
      <trkpt lat="46.61622" lon="5.90415">
        <ele>988</ele>
        <time>2014-09-03T08:59:44Z</time>
      </trkpt>
      <trkpt lat="46.6163" lon="5.9042">
        <ele>986</ele>
        <time>2014-09-03T08:59:56Z</time>
      </trkpt>
      <trkpt lat="46.61639" lon="5.90421">
        <ele>988</ele>
        <time>2014-09-03T09:00:06Z</time>
      </trkpt>
      <trkpt lat="46.61658" lon="5.90437">
        <ele>983</ele>
        <time>2014-09-03T09:00:31Z</time>
      </trkpt>
      <trkpt lat="46.61668" lon="5.90451">
        <ele>983</ele>
        <time>2014-09-03T09:00:50Z</time>
      </trkpt>
      <trkpt lat="46.61675" lon="5.90452">
        <ele>983</ele>
        <time>2014-09-03T09:01:01Z</time>
      </trkpt>
      <trkpt lat="46.61679" lon="5.90452">
        <ele>986</ele>
        <time>2014-09-03T09:01:46Z</time>
      </trkpt>
      <trkpt lat="46.6169" lon="5.90445">
        <ele>984</ele>
        <time>2014-09-03T09:02:09Z</time>
      </trkpt>
      <trkpt lat="46.61706" lon="5.90426">
        <ele>988</ele>
        <time>2014-09-03T09:02:38Z</time>
      </trkpt>
      <trkpt lat="46.61712" lon="5.90408">
        <ele>990</ele>
        <time>2014-09-03T09:02:53Z</time>
      </trkpt>
      <trkpt lat="46.61725" lon="5.904">
        <ele>984</ele>
        <time>2014-09-03T09:03:21Z</time>
      </trkpt>
      <trkpt lat="46.61731" lon="5.90389">
        <ele>984</ele>
        <time>2014-09-03T09:03:42Z</time>
      </trkpt>
      <trkpt lat="46.61741" lon="5.90387">
        <ele>986</ele>
        <time>2014-09-03T09:03:53Z</time>
      </trkpt>
      <trkpt lat="46.6175" lon="5.90388">
        <ele>987</ele>
        <time>2014-09-03T09:04:06Z</time>
      </trkpt>
      <trkpt lat="46.61775" lon="5.90411">
        <ele>976</ele>
        <time>2014-09-03T09:04:36Z</time>
      </trkpt>
      <trkpt lat="46.61784" lon="5.90416">
        <ele>974</ele>
        <time>2014-09-03T09:04:48Z</time>
      </trkpt>
      <trkpt lat="46.61794" lon="5.90423">
        <ele>977</ele>
        <time>2014-09-03T09:04:58Z</time>
      </trkpt>
      <trkpt lat="46.61805" lon="5.90429">
        <ele>979</ele>
        <time>2014-09-03T09:05:11Z</time>
      </trkpt>
      <trkpt lat="46.61814" lon="5.90434">
        <ele>978</ele>
        <time>2014-09-03T09:05:22Z</time>
      </trkpt>
      <trkpt lat="46.61835" lon="5.90459">
        <ele>965</ele>
        <time>2014-09-03T09:05:53Z</time>
      </trkpt>
      <trkpt lat="46.61841" lon="5.9047">
        <ele>968</ele>
        <time>2014-09-03T09:06:07Z</time>
      </trkpt>
      <trkpt lat="46.61849" lon="5.90479">
        <ele>967</ele>
        <time>2014-09-03T09:06:22Z</time>
      </trkpt>
      <trkpt lat="46.61855" lon="5.90489">
        <ele>968</ele>
        <time>2014-09-03T09:06:38Z</time>
      </trkpt>
      <trkpt lat="46.61859" lon="5.90494">
        <ele>969</ele>
        <time>2014-09-03T09:06:50Z</time>
      </trkpt>
      <trkpt lat="46.61864" lon="5.90505">
        <ele>969</ele>
        <time>2014-09-03T09:07:06Z</time>
      </trkpt>
      <trkpt lat="46.61866" lon="5.90522">
        <ele>967</ele>
        <time>2014-09-03T09:07:28Z</time>
      </trkpt>
      <trkpt lat="46.61874" lon="5.90527">
        <ele>967</ele>
        <time>2014-09-03T09:07:40Z</time>
      </trkpt>
      <trkpt lat="46.61884" lon="5.90529">
        <ele>964</ele>
        <time>2014-09-03T09:07:52Z</time>
      </trkpt>
      <trkpt lat="46.61891" lon="5.90538">
        <ele>961</ele>
        <time>2014-09-03T09:08:05Z</time>
      </trkpt>
      <trkpt lat="46.61897" lon="5.90549">
        <ele>961</ele>
        <time>2014-09-03T09:08:14Z</time>
      </trkpt>
      <trkpt lat="46.61906" lon="5.90555">
        <ele>959</ele>
        <time>2014-09-03T09:08:25Z</time>
      </trkpt>
      <trkpt lat="46.6192" lon="5.90574">
        <ele>963</ele>
        <time>2014-09-03T09:08:49Z</time>
      </trkpt>
      <trkpt lat="46.61934" lon="5.90591">
        <ele>962</ele>
        <time>2014-09-03T09:09:06Z</time>
      </trkpt>
      <trkpt lat="46.61942" lon="5.90599">
        <ele>962</ele>
        <time>2014-09-03T09:09:15Z</time>
      </trkpt>
      <trkpt lat="46.61948" lon="5.90609">
        <ele>959</ele>
        <time>2014-09-03T09:09:28Z</time>
      </trkpt>
      <trkpt lat="46.61953" lon="5.9062">
        <ele>961</ele>
        <time>2014-09-03T09:09:42Z</time>
      </trkpt>
      <trkpt lat="46.6196" lon="5.90629">
        <ele>962</ele>
        <time>2014-09-03T09:09:52Z</time>
      </trkpt>
      <trkpt lat="46.61978" lon="5.90647">
        <ele>957</ele>
        <time>2014-09-03T09:10:31Z</time>
      </trkpt>
      <trkpt lat="46.61996" lon="5.90657">
        <ele>957</ele>
        <time>2014-09-03T09:10:51Z</time>
      </trkpt>
      <trkpt lat="46.62002" lon="5.90667">
        <ele>955</ele>
        <time>2014-09-03T09:11:01Z</time>
      </trkpt>
      <trkpt lat="46.62029" lon="5.90679">
        <ele>962</ele>
        <time>2014-09-03T09:11:32Z</time>
      </trkpt>
      <trkpt lat="46.62038" lon="5.90683">
        <ele>961</ele>
        <time>2014-09-03T09:11:41Z</time>
      </trkpt>
      <trkpt lat="46.62042" lon="5.90689">
        <ele>962</ele>
        <time>2014-09-03T09:12:02Z</time>
      </trkpt>
      <trkpt lat="46.62044" lon="5.90685">
        <ele>962</ele>
        <time>2014-09-03T09:13:03Z</time>
      </trkpt>
      <trkpt lat="46.62045" lon="5.90689">
        <ele>962</ele>
        <time>2014-09-03T09:14:28Z</time>
      </trkpt>
      <trkpt lat="46.62046" lon="5.90704">
        <ele>962</ele>
        <time>2014-09-03T09:14:41Z</time>
      </trkpt>
      <trkpt lat="46.62048" lon="5.90724">
        <ele>957</ele>
        <time>2014-09-03T09:15:16Z</time>
      </trkpt>
      <trkpt lat="46.62054" lon="5.90735">
        <ele>957</ele>
        <time>2014-09-03T09:15:32Z</time>
      </trkpt>
      <trkpt lat="46.62059" lon="5.90746">
        <ele>957</ele>
        <time>2014-09-03T09:15:43Z</time>
      </trkpt>
      <trkpt lat="46.62056" lon="5.90741">
        <ele>962</ele>
        <time>2014-09-03T09:16:28Z</time>
      </trkpt>
      <trkpt lat="46.62049" lon="5.9073">
        <ele>963</ele>
        <time>2014-09-03T09:16:37Z</time>
      </trkpt>
      <trkpt lat="46.62045" lon="5.90718">
        <ele>962</ele>
        <time>2014-09-03T09:16:47Z</time>
      </trkpt>
      <trkpt lat="46.62044" lon="5.90705">
        <ele>961</ele>
        <time>2014-09-03T09:16:57Z</time>
      </trkpt>
      <trkpt lat="46.62039" lon="5.90694">
        <ele>961</ele>
        <time>2014-09-03T09:17:09Z</time>
      </trkpt>
      <trkpt lat="46.62041" lon="5.90687">
        <ele>963</ele>
        <time>2014-09-03T09:17:17Z</time>
      </trkpt>
      <trkpt lat="46.6204" lon="5.90676">
        <ele>963</ele>
        <time>2014-09-03T09:17:34Z</time>
      </trkpt>
      <trkpt lat="46.62042" lon="5.90669">
        <ele>963</ele>
        <time>2014-09-03T09:17:42Z</time>
      </trkpt>
      <trkpt lat="46.62045" lon="5.90665">
        <ele>965</ele>
        <time>2014-09-03T09:17:51Z</time>
      </trkpt>
      <trkpt lat="46.62051" lon="5.90667">
        <ele>964</ele>
        <time>2014-09-03T09:18:08Z</time>
      </trkpt>
      <trkpt lat="46.62054" lon="5.90676">
        <ele>961</ele>
        <time>2014-09-03T09:19:14Z</time>
      </trkpt>
      <trkpt lat="46.62049" lon="5.9068">
        <ele>961</ele>
        <time>2014-09-03T09:19:30Z</time>
      </trkpt>
      <trkpt lat="46.62045" lon="5.90683">
        <ele>960</ele>
        <time>2014-09-03T09:19:48Z</time>
      </trkpt>
      <trkpt lat="46.62052" lon="5.90686">
        <ele>959</ele>
        <time>2014-09-03T09:20:02Z</time>
      </trkpt>
      <trkpt lat="46.6207" lon="5.90695">
        <ele>954</ele>
        <time>2014-09-03T09:20:38Z</time>
      </trkpt>
      <trkpt lat="46.62074" lon="5.90695">
        <ele>960</ele>
        <time>2014-09-03T09:20:50Z</time>
      </trkpt>
      <trkpt lat="46.62079" lon="5.90698">
        <ele>959</ele>
        <time>2014-09-03T09:20:58Z</time>
      </trkpt>
      <trkpt lat="46.62082" lon="5.90698">
        <ele>960</ele>
        <time>2014-09-03T09:21:09Z</time>
      </trkpt>
      <trkpt lat="46.62085" lon="5.90703">
        <ele>960</ele>
        <time>2014-09-03T09:21:56Z</time>
      </trkpt>
      <trkpt lat="46.62084" lon="5.90707">
        <ele>961</ele>
        <time>2014-09-03T09:22:18Z</time>
      </trkpt>
      <trkpt lat="46.6208" lon="5.90705">
        <ele>963</ele>
        <time>2014-09-03T09:25:28Z</time>
      </trkpt>
      <trkpt lat="46.62073" lon="5.90707">
        <ele>963</ele>
        <time>2014-09-03T09:25:39Z</time>
      </trkpt>
      <trkpt lat="46.62063" lon="5.90702">
        <ele>961</ele>
        <time>2014-09-03T09:25:50Z</time>
      </trkpt>
      <trkpt lat="46.62054" lon="5.90686">
        <ele>959</ele>
        <time>2014-09-03T09:26:16Z</time>
      </trkpt>
      <trkpt lat="46.62051" lon="5.90687">
        <ele>961</ele>
        <time>2014-09-03T09:26:26Z</time>
      </trkpt>
      <trkpt lat="46.62049" lon="5.90694">
        <ele>962</ele>
        <time>2014-09-03T09:26:33Z</time>
      </trkpt>
      <trkpt lat="46.62048" lon="5.90722">
        <ele>959</ele>
        <time>2014-09-03T09:26:53Z</time>
      </trkpt>
      <trkpt lat="46.6205" lon="5.90734">
        <ele>956</ele>
        <time>2014-09-03T09:27:03Z</time>
      </trkpt>
      <trkpt lat="46.62057" lon="5.90743">
        <ele>956</ele>
        <time>2014-09-03T09:27:12Z</time>
      </trkpt>
      <trkpt lat="46.6206" lon="5.90748">
        <ele>957</ele>
        <time>2014-09-03T09:27:17Z</time>
      </trkpt>
      <trkpt lat="46.62062" lon="5.90762">
        <ele>958</ele>
        <time>2014-09-03T09:27:26Z</time>
      </trkpt>
      <trkpt lat="46.62062" lon="5.90771">
        <ele>955</ele>
        <time>2014-09-03T09:27:34Z</time>
      </trkpt>
      <trkpt lat="46.62062" lon="5.90778">
        <ele>953</ele>
        <time>2014-09-03T09:27:51Z</time>
      </trkpt>
      <trkpt lat="46.62059" lon="5.90791">
        <ele>952</ele>
        <time>2014-09-03T09:28:02Z</time>
      </trkpt>
      <trkpt lat="46.62052" lon="5.90813">
        <ele>955</ele>
        <time>2014-09-03T09:28:28Z</time>
      </trkpt>
      <trkpt lat="46.62041" lon="5.90849">
        <ele>942</ele>
        <time>2014-09-03T09:29:00Z</time>
      </trkpt>
      <trkpt lat="46.62031" lon="5.90873">
        <ele>946</ele>
        <time>2014-09-03T09:29:19Z</time>
      </trkpt>
      <trkpt lat="46.62022" lon="5.90884">
        <ele>946</ele>
        <time>2014-09-03T09:29:35Z</time>
      </trkpt>
      <trkpt lat="46.62009" lon="5.90904">
        <ele>944</ele>
        <time>2014-09-03T09:29:58Z</time>
      </trkpt>
      <trkpt lat="46.61996" lon="5.90922">
        <ele>940</ele>
        <time>2014-09-03T09:30:17Z</time>
      </trkpt>
      <trkpt lat="46.61987" lon="5.90928">
        <ele>940</ele>
        <time>2014-09-03T09:30:26Z</time>
      </trkpt>
      <trkpt lat="46.61972" lon="5.90951">
        <ele>943</ele>
        <time>2014-09-03T09:30:54Z</time>
      </trkpt>
      <trkpt lat="46.61974" lon="5.90961">
        <ele>941</ele>
        <time>2014-09-03T09:31:11Z</time>
      </trkpt>
      <trkpt lat="46.61982" lon="5.90954">
        <ele>940</ele>
        <time>2014-09-03T09:31:24Z</time>
      </trkpt>
      <trkpt lat="46.6199" lon="5.90966">
        <ele>940</ele>
        <time>2014-09-03T09:31:55Z</time>
      </trkpt>
      <trkpt lat="46.62002" lon="5.90972">
        <ele>940</ele>
        <time>2014-09-03T09:32:14Z</time>
      </trkpt>
      <trkpt lat="46.62013" lon="5.90976">
        <ele>939</ele>
        <time>2014-09-03T09:32:24Z</time>
      </trkpt>
      <trkpt lat="46.62018" lon="5.90979">
        <ele>942</ele>
        <time>2014-09-03T09:32:41Z</time>
      </trkpt>
      <trkpt lat="46.62026" lon="5.90971">
        <ele>943</ele>
        <time>2014-09-03T09:32:49Z</time>
      </trkpt>
      <trkpt lat="46.6204" lon="5.90965">
        <ele>950</ele>
        <time>2014-09-03T09:33:15Z</time>
      </trkpt>
      <trkpt lat="46.62051" lon="5.90965">
        <ele>946</ele>
        <time>2014-09-03T09:33:26Z</time>
      </trkpt>
      <trkpt lat="46.62062" lon="5.90959">
        <ele>945</ele>
        <time>2014-09-03T09:33:40Z</time>
      </trkpt>
      <trkpt lat="46.62072" lon="5.90952">
        <ele>948</ele>
        <time>2014-09-03T09:33:49Z</time>
      </trkpt>
      <trkpt lat="46.62077" lon="5.90935">
        <ele>948</ele>
        <time>2014-09-03T09:34:06Z</time>
      </trkpt>
      <trkpt lat="46.62094" lon="5.90921">
        <ele>950</ele>
        <time>2014-09-03T09:34:30Z</time>
      </trkpt>
      <trkpt lat="46.62124" lon="5.90891">
        <ele>945</ele>
        <time>2014-09-03T09:35:12Z</time>
      </trkpt>
      <trkpt lat="46.62128" lon="5.90878">
        <ele>944</ele>
        <time>2014-09-03T09:35:20Z</time>
      </trkpt>
      <trkpt lat="46.62131" lon="5.90871">
        <ele>947</ele>
        <time>2014-09-03T09:35:40Z</time>
      </trkpt>
      <trkpt lat="46.62142" lon="5.90865">
        <ele>947</ele>
        <time>2014-09-03T09:35:47Z</time>
      </trkpt>
      <trkpt lat="46.6216" lon="5.90879">
        <ele>943</ele>
        <time>2014-09-03T09:36:06Z</time>
      </trkpt>
      <trkpt lat="46.62186" lon="5.90868">
        <ele>936</ele>
        <time>2014-09-03T09:36:51Z</time>
      </trkpt>
      <trkpt lat="46.62206" lon="5.90872">
        <ele>930</ele>
        <time>2014-09-03T09:37:05Z</time>
      </trkpt>
      <trkpt lat="46.62221" lon="5.90891">
        <ele>921</ele>
        <time>2014-09-03T09:37:20Z</time>
      </trkpt>
      <trkpt lat="46.62225" lon="5.90918">
        <ele>918</ele>
        <time>2014-09-03T09:37:36Z</time>
      </trkpt>
      <trkpt lat="46.62228" lon="5.90934">
        <ele>919</ele>
        <time>2014-09-03T09:37:46Z</time>
      </trkpt>
      <trkpt lat="46.62234" lon="5.90949">
        <ele>928</ele>
        <time>2014-09-03T09:38:14Z</time>
      </trkpt>
      <trkpt lat="46.62246" lon="5.90945">
        <ele>936</ele>
        <time>2014-09-03T09:38:36Z</time>
      </trkpt>
      <trkpt lat="46.62255" lon="5.90945">
        <ele>941</ele>
        <time>2014-09-03T09:38:55Z</time>
      </trkpt>
      <trkpt lat="46.62282" lon="5.90962">
        <ele>926</ele>
        <time>2014-09-03T09:39:30Z</time>
      </trkpt>
      <trkpt lat="46.62291" lon="5.90964">
        <ele>924</ele>
        <time>2014-09-03T09:39:38Z</time>
      </trkpt>
      <trkpt lat="46.62299" lon="5.90973">
        <ele>922</ele>
        <time>2014-09-03T09:39:45Z</time>
      </trkpt>
      <trkpt lat="46.62309" lon="5.9098">
        <ele>921</ele>
        <time>2014-09-03T09:39:54Z</time>
      </trkpt>
      <trkpt lat="46.62313" lon="5.90984">
        <ele>924</ele>
        <time>2014-09-03T09:40:05Z</time>
      </trkpt>
      <trkpt lat="46.62319" lon="5.90982">
        <ele>928</ele>
        <time>2014-09-03T09:40:22Z</time>
      </trkpt>
      <trkpt lat="46.62334" lon="5.90986">
        <ele>930</ele>
        <time>2014-09-03T09:40:42Z</time>
      </trkpt>
      <trkpt lat="46.62336" lon="5.90985">
        <ele>929</ele>
        <time>2014-09-03T09:40:48Z</time>
      </trkpt>
      <trkpt lat="46.6234" lon="5.9098">
        <ele>933</ele>
        <time>2014-09-03T09:41:05Z</time>
      </trkpt>
      <trkpt lat="46.62346" lon="5.9098">
        <ele>933</ele>
        <time>2014-09-03T09:41:25Z</time>
      </trkpt>
      <trkpt lat="46.62351" lon="5.90975">
        <ele>932</ele>
        <time>2014-09-03T09:41:41Z</time>
      </trkpt>
      <trkpt lat="46.62352" lon="5.90974">
        <ele>929</ele>
        <time>2014-09-03T09:44:50Z</time>
      </trkpt>
      <trkpt lat="46.62355" lon="5.90978">
        <ele>930</ele>
        <time>2014-09-03T09:45:41Z</time>
      </trkpt>
      <trkpt lat="46.62354" lon="5.90974">
        <ele>932</ele>
        <time>2014-09-03T09:48:54Z</time>
      </trkpt>
      <trkpt lat="46.62355" lon="5.90973">
        <ele>933</ele>
        <time>2014-09-03T09:50:42Z</time>
      </trkpt>
      <trkpt lat="46.62359" lon="5.90987">
        <ele>932</ele>
        <time>2014-09-03T09:51:13Z</time>
      </trkpt>
      <trkpt lat="46.62357" lon="5.90993">
        <ele>929</ele>
        <time>2014-09-03T09:51:18Z</time>
      </trkpt>
      <trkpt lat="46.62356" lon="5.91011">
        <ele>932</ele>
        <time>2014-09-03T09:51:54Z</time>
      </trkpt>
      <trkpt lat="46.62362" lon="5.91006">
        <ele>938</ele>
        <time>2014-09-03T09:52:43Z</time>
      </trkpt>
      <trkpt lat="46.62361" lon="5.90998">
        <ele>933</ele>
        <time>2014-09-03T09:53:06Z</time>
      </trkpt>
      <trkpt lat="46.62364" lon="5.90994">
        <ele>933</ele>
        <time>2014-09-03T09:53:17Z</time>
      </trkpt>
      <trkpt lat="46.62369" lon="5.90994">
        <ele>932</ele>
        <time>2014-09-03T09:53:30Z</time>
      </trkpt>
      <trkpt lat="46.62385" lon="5.91015">
        <ele>926</ele>
        <time>2014-09-03T09:54:01Z</time>
      </trkpt>
      <trkpt lat="46.624" lon="5.91042">
        <ele>926</ele>
        <time>2014-09-03T09:54:40Z</time>
      </trkpt>
      <trkpt lat="46.6241" lon="5.91057">
        <ele>930</ele>
        <time>2014-09-03T09:55:02Z</time>
      </trkpt>
      <trkpt lat="46.62414" lon="5.91062">
        <ele>930</ele>
        <time>2014-09-03T09:55:16Z</time>
      </trkpt>
      <trkpt lat="46.62424" lon="5.9107">
        <ele>929</ele>
        <time>2014-09-03T09:55:33Z</time>
      </trkpt>
      <trkpt lat="46.62432" lon="5.91076">
        <ele>930</ele>
        <time>2014-09-03T09:55:47Z</time>
      </trkpt>
      <trkpt lat="46.62438" lon="5.91081">
        <ele>931</ele>
        <time>2014-09-03T09:56:09Z</time>
      </trkpt>
      <trkpt lat="46.6245" lon="5.91082">
        <ele>925</ele>
        <time>2014-09-03T09:56:38Z</time>
      </trkpt>
      <trkpt lat="46.62454" lon="5.91086">
        <ele>924</ele>
        <time>2014-09-03T09:56:54Z</time>
      </trkpt>
      <trkpt lat="46.62461" lon="5.91102">
        <ele>912</ele>
        <time>2014-09-03T09:57:29Z</time>
      </trkpt>
      <trkpt lat="46.62483" lon="5.91131">
        <ele>915</ele>
        <time>2014-09-03T09:58:00Z</time>
      </trkpt>
      <trkpt lat="46.62487" lon="5.91135">
        <ele>912</ele>
        <time>2014-09-03T09:58:15Z</time>
      </trkpt>
      <trkpt lat="46.62496" lon="5.91147">
        <ele>916</ele>
        <time>2014-09-03T09:58:45Z</time>
      </trkpt>
      <trkpt lat="46.62503" lon="5.91156">
        <ele>912</ele>
        <time>2014-09-03T09:59:03Z</time>
      </trkpt>
      <trkpt lat="46.62511" lon="5.91168">
        <ele>911</ele>
        <time>2014-09-03T09:59:20Z</time>
      </trkpt>
      <trkpt lat="46.62519" lon="5.91174">
        <ele>912</ele>
        <time>2014-09-03T09:59:32Z</time>
      </trkpt>
      <trkpt lat="46.6253" lon="5.91185">
        <ele>912</ele>
        <time>2014-09-03T09:59:58Z</time>
      </trkpt>
      <trkpt lat="46.62532" lon="5.91195">
        <ele>912</ele>
        <time>2014-09-03T10:00:14Z</time>
      </trkpt>
      <trkpt lat="46.62535" lon="5.912">
        <ele>912</ele>
        <time>2014-09-03T10:00:37Z</time>
      </trkpt>
      <trkpt lat="46.62539" lon="5.91206">
        <ele>911</ele>
        <time>2014-09-03T10:00:56Z</time>
      </trkpt>
      <trkpt lat="46.62547" lon="5.91225">
        <ele>918</ele>
        <time>2014-09-03T10:01:18Z</time>
      </trkpt>
      <trkpt lat="46.62549" lon="5.9123">
        <ele>918</ele>
        <time>2014-09-03T10:01:36Z</time>
      </trkpt>
      <trkpt lat="46.62559" lon="5.91255">
        <ele>910</ele>
        <time>2014-09-03T10:02:32Z</time>
      </trkpt>
      <trkpt lat="46.62564" lon="5.91261">
        <ele>909</ele>
        <time>2014-09-03T10:02:46Z</time>
      </trkpt>
      <trkpt lat="46.62572" lon="5.91269">
        <ele>908</ele>
        <time>2014-09-03T10:03:00Z</time>
      </trkpt>
      <trkpt lat="46.62589" lon="5.91285">
        <ele>909</ele>
        <time>2014-09-03T10:03:42Z</time>
      </trkpt>
      <trkpt lat="46.62602" lon="5.91293">
        <ele>912</ele>
        <time>2014-09-03T10:04:17Z</time>
      </trkpt>
      <trkpt lat="46.62609" lon="5.91301">
        <ele>913</ele>
        <time>2014-09-03T10:04:30Z</time>
      </trkpt>
      <trkpt lat="46.62617" lon="5.91307">
        <ele>916</ele>
        <time>2014-09-03T10:05:00Z</time>
      </trkpt>
      <trkpt lat="46.62619" lon="5.91307">
        <ele>911</ele>
        <time>2014-09-03T10:05:56Z</time>
      </trkpt>
      <trkpt lat="46.62613" lon="5.91314">
        <ele>911</ele>
        <time>2014-09-03T10:09:24Z</time>
      </trkpt>
      <trkpt lat="46.62614" lon="5.91322">
        <ele>912</ele>
        <time>2014-09-03T10:09:41Z</time>
      </trkpt>
      <trkpt lat="46.62614" lon="5.91343">
        <ele>923</ele>
        <time>2014-09-03T10:10:10Z</time>
      </trkpt>
      <trkpt lat="46.62612" lon="5.91346">
        <ele>923</ele>
        <time>2014-09-03T10:10:38Z</time>
      </trkpt>
      <trkpt lat="46.62609" lon="5.91347">
        <ele>926</ele>
        <time>2014-09-03T10:13:01Z</time>
      </trkpt>
      <trkpt lat="46.62608" lon="5.91352">
        <ele>927</ele>
        <time>2014-09-03T10:13:36Z</time>
      </trkpt>
      <trkpt lat="46.62611" lon="5.91358">
        <ele>926</ele>
        <time>2014-09-03T10:14:42Z</time>
      </trkpt>
      <trkpt lat="46.62614" lon="5.91371">
        <ele>926</ele>
        <time>2014-09-03T10:14:51Z</time>
      </trkpt>
      <trkpt lat="46.62617" lon="5.91384">
        <ele>923</ele>
        <time>2014-09-03T10:15:04Z</time>
      </trkpt>
      <trkpt lat="46.62615" lon="5.91398">
        <ele>922</ele>
        <time>2014-09-03T10:15:16Z</time>
      </trkpt>
      <trkpt lat="46.62609" lon="5.91411">
        <ele>922</ele>
        <time>2014-09-03T10:15:31Z</time>
      </trkpt>
      <trkpt lat="46.62602" lon="5.91429">
        <ele>925</ele>
        <time>2014-09-03T10:15:52Z</time>
      </trkpt>
      <trkpt lat="46.626" lon="5.91436">
        <ele>931</ele>
        <time>2014-09-03T10:16:11Z</time>
      </trkpt>
      <trkpt lat="46.62593" lon="5.91444">
        <ele>931</ele>
        <time>2014-09-03T10:16:30Z</time>
      </trkpt>
      <trkpt lat="46.62586" lon="5.91453">
        <ele>931</ele>
        <time>2014-09-03T10:16:44Z</time>
      </trkpt>
      <trkpt lat="46.62579" lon="5.91453">
        <ele>930</ele>
        <time>2014-09-03T10:16:51Z</time>
      </trkpt>
      <trkpt lat="46.62564" lon="5.91462">
        <ele>934</ele>
        <time>2014-09-03T10:17:06Z</time>
      </trkpt>
      <trkpt lat="46.62556" lon="5.91468">
        <ele>933</ele>
        <time>2014-09-03T10:17:16Z</time>
      </trkpt>
      <trkpt lat="46.62544" lon="5.91479">
        <ele>940</ele>
        <time>2014-09-03T10:17:56Z</time>
      </trkpt>
      <trkpt lat="46.62547" lon="5.91482">
        <ele>933</ele>
        <time>2014-09-03T10:19:09Z</time>
      </trkpt>
      <trkpt lat="46.62545" lon="5.91471">
        <ele>934</ele>
        <time>2014-09-03T10:19:27Z</time>
      </trkpt>
      <trkpt lat="46.62551" lon="5.91469">
        <ele>930</ele>
        <time>2014-09-03T10:20:44Z</time>
      </trkpt>
      <trkpt lat="46.62558" lon="5.91458">
        <ele>940</ele>
        <time>2014-09-03T10:21:17Z</time>
      </trkpt>
      <trkpt lat="46.62562" lon="5.91455">
        <ele>941</ele>
        <time>2014-09-03T10:21:28Z</time>
      </trkpt>
      <trkpt lat="46.62569" lon="5.91446">
        <ele>942</ele>
        <time>2014-09-03T10:21:35Z</time>
      </trkpt>
      <trkpt lat="46.62595" lon="5.91426">
        <ele>932</ele>
        <time>2014-09-03T10:22:15Z</time>
      </trkpt>
      <trkpt lat="46.62602" lon="5.91426">
        <ele>933</ele>
        <time>2014-09-03T10:22:30Z</time>
      </trkpt>
      <trkpt lat="46.62619" lon="5.91433">
        <ele>931</ele>
        <time>2014-09-03T10:22:52Z</time>
      </trkpt>
      <trkpt lat="46.62623" lon="5.91436">
        <ele>932</ele>
        <time>2014-09-03T10:23:06Z</time>
      </trkpt>
      <trkpt lat="46.62632" lon="5.91445">
        <ele>932</ele>
        <time>2014-09-03T10:23:18Z</time>
      </trkpt>
      <trkpt lat="46.62643" lon="5.91451">
        <ele>936</ele>
        <time>2014-09-03T10:23:48Z</time>
      </trkpt>
      <trkpt lat="46.62652" lon="5.91456">
        <ele>940</ele>
        <time>2014-09-03T10:24:07Z</time>
      </trkpt>
      <trkpt lat="46.62655" lon="5.9146">
        <ele>939</ele>
        <time>2014-09-03T10:24:16Z</time>
      </trkpt>
      <trkpt lat="46.62668" lon="5.91466">
        <ele>940</ele>
        <time>2014-09-03T10:24:38Z</time>
      </trkpt>
      <trkpt lat="46.62676" lon="5.91477">
        <ele>938</ele>
        <time>2014-09-03T10:24:52Z</time>
      </trkpt>
      <trkpt lat="46.62686" lon="5.91485">
        <ele>945</ele>
        <time>2014-09-03T10:25:16Z</time>
      </trkpt>
      <trkpt lat="46.62691" lon="5.91488">
        <ele>945</ele>
        <time>2014-09-03T10:25:25Z</time>
      </trkpt>
      <trkpt lat="46.62694" lon="5.91496">
        <ele>943</ele>
        <time>2014-09-03T10:25:38Z</time>
      </trkpt>
      <trkpt lat="46.62703" lon="5.915">
        <ele>942</ele>
        <time>2014-09-03T10:26:12Z</time>
      </trkpt>
      <trkpt lat="46.62705" lon="5.91503">
        <ele>940</ele>
        <time>2014-09-03T10:26:26Z</time>
      </trkpt>
      <trkpt lat="46.62709" lon="5.91505">
        <ele>940</ele>
        <time>2014-09-03T10:26:59Z</time>
      </trkpt>
      <trkpt lat="46.62721" lon="5.91504">
        <ele>939</ele>
        <time>2014-09-03T10:27:09Z</time>
      </trkpt>
      <trkpt lat="46.62727" lon="5.91505">
        <ele>937</ele>
        <time>2014-09-03T10:27:12Z</time>
      </trkpt>
      <trkpt lat="46.62741" lon="5.91504">
        <ele>936</ele>
        <time>2014-09-03T10:27:31Z</time>
      </trkpt>
      <trkpt lat="46.62747" lon="5.91498">
        <ele>932</ele>
        <time>2014-09-03T10:27:49Z</time>
      </trkpt>
      <trkpt lat="46.62757" lon="5.91496">
        <ele>929</ele>
        <time>2014-09-03T10:28:28Z</time>
      </trkpt>
      <trkpt lat="46.62766" lon="5.91501">
        <ele>927</ele>
        <time>2014-09-03T10:28:55Z</time>
      </trkpt>
      <trkpt lat="46.62771" lon="5.91502">
        <ele>928</ele>
        <time>2014-09-03T10:29:00Z</time>
      </trkpt>
      <trkpt lat="46.62775" lon="5.91513">
        <ele>925</ele>
        <time>2014-09-03T10:29:29Z</time>
      </trkpt>
      <trkpt lat="46.62776" lon="5.91525">
        <ele>925</ele>
        <time>2014-09-03T10:29:52Z</time>
      </trkpt>
      <trkpt lat="46.62778" lon="5.91527">
        <ele>920</ele>
        <time>2014-09-03T10:29:58Z</time>
      </trkpt>
      <trkpt lat="46.62793" lon="5.91545">
        <ele>922</ele>
        <time>2014-09-03T10:30:24Z</time>
      </trkpt>
      <trkpt lat="46.62798" lon="5.91553">
        <ele>921</ele>
        <time>2014-09-03T10:30:34Z</time>
      </trkpt>
      <trkpt lat="46.62804" lon="5.91565">
        <ele>920</ele>
        <time>2014-09-03T10:30:45Z</time>
      </trkpt>
      <trkpt lat="46.62807" lon="5.91575">
        <ele>917</ele>
        <time>2014-09-03T10:30:59Z</time>
      </trkpt>
      <trkpt lat="46.62814" lon="5.91583">
        <ele>917</ele>
        <time>2014-09-03T10:31:15Z</time>
      </trkpt>
      <trkpt lat="46.62819" lon="5.91592">
        <ele>923</ele>
        <time>2014-09-03T10:31:34Z</time>
      </trkpt>
      <trkpt lat="46.62824" lon="5.91597">
        <ele>923</ele>
        <time>2014-09-03T10:31:44Z</time>
      </trkpt>
      <trkpt lat="46.6283" lon="5.91597">
        <ele>920</ele>
        <time>2014-09-03T10:32:03Z</time>
      </trkpt>
      <trkpt lat="46.62834" lon="5.91602">
        <ele>919</ele>
        <time>2014-09-03T10:32:20Z</time>
      </trkpt>
      <trkpt lat="46.62837" lon="5.91608">
        <ele>919</ele>
        <time>2014-09-03T10:32:30Z</time>
      </trkpt>
      <trkpt lat="46.62843" lon="5.91618">
        <ele>919</ele>
        <time>2014-09-03T10:32:40Z</time>
      </trkpt>
      <trkpt lat="46.62847" lon="5.91631">
        <ele>922</ele>
        <time>2014-09-03T10:32:58Z</time>
      </trkpt>
      <trkpt lat="46.62851" lon="5.9164">
        <ele>921</ele>
        <time>2014-09-03T10:33:12Z</time>
      </trkpt>
      <trkpt lat="46.62855" lon="5.91644">
        <ele>921</ele>
        <time>2014-09-03T10:33:20Z</time>
      </trkpt>
      <trkpt lat="46.62867" lon="5.91655">
        <ele>927</ele>
        <time>2014-09-03T10:33:45Z</time>
      </trkpt>
      <trkpt lat="46.62877" lon="5.91666">
        <ele>926</ele>
        <time>2014-09-03T10:34:13Z</time>
      </trkpt>
      <trkpt lat="46.62883" lon="5.91671">
        <ele>927</ele>
        <time>2014-09-03T10:34:39Z</time>
      </trkpt>
      <trkpt lat="46.62893" lon="5.91674">
        <ele>926</ele>
        <time>2014-09-03T10:34:45Z</time>
      </trkpt>
      <trkpt lat="46.62898" lon="5.91677">
        <ele>927</ele>
        <time>2014-09-03T10:34:57Z</time>
      </trkpt>
      <trkpt lat="46.62906" lon="5.91683">
        <ele>928</ele>
        <time>2014-09-03T10:35:11Z</time>
      </trkpt>
      <trkpt lat="46.62918" lon="5.917">
        <ele>917</ele>
        <time>2014-09-03T10:36:15Z</time>
      </trkpt>
      <trkpt lat="46.62925" lon="5.91714">
        <ele>916</ele>
        <time>2014-09-03T10:36:36Z</time>
      </trkpt>
      <trkpt lat="46.62937" lon="5.91736">
        <ele>919</ele>
        <time>2014-09-03T10:37:04Z</time>
      </trkpt>
      <trkpt lat="46.62943" lon="5.91743">
        <ele>921</ele>
        <time>2014-09-03T10:37:13Z</time>
      </trkpt>
      <trkpt lat="46.62948" lon="5.91749">
        <ele>919</ele>
        <time>2014-09-03T10:37:44Z</time>
      </trkpt>
      <trkpt lat="46.62952" lon="5.91754">
        <ele>921</ele>
        <time>2014-09-03T10:38:10Z</time>
      </trkpt>
      <trkpt lat="46.62951" lon="5.9176">
        <ele>921</ele>
        <time>2014-09-03T10:38:32Z</time>
      </trkpt>
      <trkpt lat="46.62952" lon="5.91768">
        <ele>917</ele>
        <time>2014-09-03T10:38:50Z</time>
      </trkpt>
      <trkpt lat="46.62951" lon="5.91772">
        <ele>915</ele>
        <time>2014-09-03T10:39:13Z</time>
      </trkpt>
      <trkpt lat="46.62945" lon="5.91782">
        <ele>917</ele>
        <time>2014-09-03T10:40:15Z</time>
      </trkpt>
      <trkpt lat="46.62942" lon="5.91774">
        <ele>916</ele>
        <time>2014-09-03T10:41:19Z</time>
      </trkpt>
      <trkpt lat="46.62949" lon="5.91769">
        <ele>927</ele>
        <time>2014-09-03T11:52:59Z</time>
      </trkpt>
      <trkpt lat="46.62956" lon="5.91776">
        <ele>927</ele>
        <time>2014-09-03T11:54:25Z</time>
      </trkpt>
      <trkpt lat="46.62962" lon="5.91786">
        <ele>925</ele>
        <time>2014-09-03T11:54:38Z</time>
      </trkpt>
      <trkpt lat="46.62965" lon="5.91794">
        <ele>922</ele>
        <time>2014-09-03T11:54:54Z</time>
      </trkpt>
      <trkpt lat="46.62974" lon="5.918">
        <ele>921</ele>
        <time>2014-09-03T11:55:02Z</time>
      </trkpt>
      <trkpt lat="46.62981" lon="5.91809">
        <ele>919</ele>
        <time>2014-09-03T11:55:14Z</time>
      </trkpt>
      <trkpt lat="46.62987" lon="5.91824">
        <ele>920</ele>
        <time>2014-09-03T11:55:40Z</time>
      </trkpt>
      <trkpt lat="46.62998" lon="5.9183">
        <ele>922</ele>
        <time>2014-09-03T11:56:08Z</time>
      </trkpt>
      <trkpt lat="46.63002" lon="5.91842">
        <ele>921</ele>
        <time>2014-09-03T11:56:36Z</time>
      </trkpt>
      <trkpt lat="46.63006" lon="5.91854">
        <ele>924</ele>
        <time>2014-09-03T11:56:47Z</time>
      </trkpt>
      <trkpt lat="46.63008" lon="5.91861">
        <ele>925</ele>
        <time>2014-09-03T11:56:55Z</time>
      </trkpt>
      <trkpt lat="46.63017" lon="5.91874">
        <ele>918</ele>
        <time>2014-09-03T11:57:24Z</time>
      </trkpt>
      <trkpt lat="46.6302" lon="5.91875">
        <ele>917</ele>
        <time>2014-09-03T11:57:35Z</time>
      </trkpt>
      <trkpt lat="46.63021" lon="5.91882">
        <ele>913</ele>
        <time>2014-09-03T11:57:50Z</time>
      </trkpt>
      <trkpt lat="46.63024" lon="5.91891">
        <ele>914</ele>
        <time>2014-09-03T11:58:17Z</time>
      </trkpt>
      <trkpt lat="46.63019" lon="5.91899">
        <ele>911</ele>
        <time>2014-09-03T11:59:01Z</time>
      </trkpt>
      <trkpt lat="46.63015" lon="5.91904">
        <ele>913</ele>
        <time>2014-09-03T11:59:10Z</time>
      </trkpt>
      <trkpt lat="46.63018" lon="5.91913">
        <ele>920</ele>
        <time>2014-09-03T11:59:26Z</time>
      </trkpt>
      <trkpt lat="46.63025" lon="5.91932">
        <ele>913</ele>
        <time>2014-09-03T11:59:53Z</time>
      </trkpt>
      <trkpt lat="46.63031" lon="5.91942">
        <ele>914</ele>
        <time>2014-09-03T12:00:09Z</time>
      </trkpt>
      <trkpt lat="46.63038" lon="5.91944">
        <ele>915</ele>
        <time>2014-09-03T12:00:32Z</time>
      </trkpt>
      <trkpt lat="46.63042" lon="5.91943">
        <ele>912</ele>
        <time>2014-09-03T12:00:54Z</time>
      </trkpt>
      <trkpt lat="46.63049" lon="5.91942">
        <ele>911</ele>
        <time>2014-09-03T12:01:17Z</time>
      </trkpt>
      <trkpt lat="46.63053" lon="5.91956">
        <ele>906</ele>
        <time>2014-09-03T12:01:32Z</time>
      </trkpt>
      <trkpt lat="46.63058" lon="5.91961">
        <ele>905</ele>
        <time>2014-09-03T12:01:57Z</time>
      </trkpt>
      <trkpt lat="46.63067" lon="5.91966">
        <ele>910</ele>
        <time>2014-09-03T12:02:26Z</time>
      </trkpt>
      <trkpt lat="46.6307" lon="5.91972">
        <ele>908</ele>
        <time>2014-09-03T12:02:37Z</time>
      </trkpt>
      <trkpt lat="46.63083" lon="5.91974">
        <ele>907</ele>
        <time>2014-09-03T12:03:01Z</time>
      </trkpt>
      <trkpt lat="46.63085" lon="5.91984">
        <ele>905</ele>
        <time>2014-09-03T12:03:37Z</time>
      </trkpt>
      <trkpt lat="46.63087" lon="5.91991">
        <ele>903</ele>
        <time>2014-09-03T12:04:08Z</time>
      </trkpt>
      <trkpt lat="46.63098" lon="5.91996">
        <ele>902</ele>
        <time>2014-09-03T12:04:19Z</time>
      </trkpt>
      <trkpt lat="46.631" lon="5.92006">
        <ele>901</ele>
        <time>2014-09-03T12:04:25Z</time>
      </trkpt>
      <trkpt lat="46.63106" lon="5.92029">
        <ele>898</ele>
        <time>2014-09-03T12:04:38Z</time>
      </trkpt>
      <trkpt lat="46.63115" lon="5.92036">
        <ele>896</ele>
        <time>2014-09-03T12:04:49Z</time>
      </trkpt>
      <trkpt lat="46.63117" lon="5.92046">
        <ele>894</ele>
        <time>2014-09-03T12:05:04Z</time>
      </trkpt>
      <trkpt lat="46.6312" lon="5.92052">
        <ele>896</ele>
        <time>2014-09-03T12:05:22Z</time>
      </trkpt>
      <trkpt lat="46.63122" lon="5.92058">
        <ele>895</ele>
        <time>2014-09-03T12:05:30Z</time>
      </trkpt>
      <trkpt lat="46.63131" lon="5.92065">
        <ele>896</ele>
        <time>2014-09-03T12:05:38Z</time>
      </trkpt>
      <trkpt lat="46.63145" lon="5.92066">
        <ele>894</ele>
        <time>2014-09-03T12:06:09Z</time>
      </trkpt>
      <trkpt lat="46.63152" lon="5.92073">
        <ele>897</ele>
        <time>2014-09-03T12:06:34Z</time>
      </trkpt>
      <trkpt lat="46.63167" lon="5.92096">
        <ele>894</ele>
        <time>2014-09-03T12:07:09Z</time>
      </trkpt>
      <trkpt lat="46.63171" lon="5.92104">
        <ele>894</ele>
        <time>2014-09-03T12:07:21Z</time>
      </trkpt>
      <trkpt lat="46.63178" lon="5.92112">
        <ele>890</ele>
        <time>2014-09-03T12:07:37Z</time>
      </trkpt>
      <trkpt lat="46.63178" lon="5.92119">
        <ele>887</ele>
        <time>2014-09-03T12:07:50Z</time>
      </trkpt>
      <trkpt lat="46.63181" lon="5.92125">
        <ele>888</ele>
        <time>2014-09-03T12:08:07Z</time>
      </trkpt>
      <trkpt lat="46.63182" lon="5.92135">
        <ele>888</ele>
        <time>2014-09-03T12:08:23Z</time>
      </trkpt>
      <trkpt lat="46.63183" lon="5.92141">
        <ele>886</ele>
        <time>2014-09-03T12:08:36Z</time>
      </trkpt>
      <trkpt lat="46.63187" lon="5.92148">
        <ele>884</ele>
        <time>2014-09-03T12:08:51Z</time>
      </trkpt>
      <trkpt lat="46.63188" lon="5.92168">
        <ele>879</ele>
        <time>2014-09-03T12:09:15Z</time>
      </trkpt>
      <trkpt lat="46.63189" lon="5.92174">
        <ele>885</ele>
        <time>2014-09-03T12:09:46Z</time>
      </trkpt>
      <trkpt lat="46.63207" lon="5.92188">
        <ele>889</ele>
        <time>2014-09-03T12:10:15Z</time>
      </trkpt>
      <trkpt lat="46.6321" lon="5.92195">
        <ele>888</ele>
        <time>2014-09-03T12:10:34Z</time>
      </trkpt>
      <trkpt lat="46.63214" lon="5.92203">
        <ele>888</ele>
        <time>2014-09-03T12:10:49Z</time>
      </trkpt>
      <trkpt lat="46.63218" lon="5.92207">
        <ele>887</ele>
        <time>2014-09-03T12:10:56Z</time>
      </trkpt>
      <trkpt lat="46.63227" lon="5.92212">
        <ele>889</ele>
        <time>2014-09-03T12:11:09Z</time>
      </trkpt>
      <trkpt lat="46.63235" lon="5.92215">
        <ele>889</ele>
        <time>2014-09-03T12:11:19Z</time>
      </trkpt>
      <trkpt lat="46.6325" lon="5.92235">
        <ele>881</ele>
        <time>2014-09-03T12:11:55Z</time>
      </trkpt>
      <trkpt lat="46.63251" lon="5.92242">
        <ele>882</ele>
        <time>2014-09-03T12:12:07Z</time>
      </trkpt>
      <trkpt lat="46.63255" lon="5.92249">
        <ele>887</ele>
        <time>2014-09-03T12:12:27Z</time>
      </trkpt>
      <trkpt lat="46.63267" lon="5.92255">
        <ele>878</ele>
        <time>2014-09-03T12:13:19Z</time>
      </trkpt>
      <trkpt lat="46.63282" lon="5.92275">
        <ele>870</ele>
        <time>2014-09-03T12:13:53Z</time>
      </trkpt>
      <trkpt lat="46.63291" lon="5.9229">
        <ele>867</ele>
        <time>2014-09-03T12:14:12Z</time>
      </trkpt>
      <trkpt lat="46.63295" lon="5.9231">
        <ele>862</ele>
        <time>2014-09-03T12:14:47Z</time>
      </trkpt>
      <trkpt lat="46.63299" lon="5.92324">
        <ele>862</ele>
        <time>2014-09-03T12:14:58Z</time>
      </trkpt>
      <trkpt lat="46.63307" lon="5.9233">
        <ele>864</ele>
        <time>2014-09-03T12:15:11Z</time>
      </trkpt>
      <trkpt lat="46.63306" lon="5.92321">
        <ele>870</ele>
        <time>2014-09-03T12:16:09Z</time>
      </trkpt>
      <trkpt lat="46.6331" lon="5.9231">
        <ele>868</ele>
        <time>2014-09-03T12:16:59Z</time>
      </trkpt>
      <trkpt lat="46.6332" lon="5.92305">
        <ele>867</ele>
        <time>2014-09-03T12:17:39Z</time>
      </trkpt>
      <trkpt lat="46.63325" lon="5.923">
        <ele>865</ele>
        <time>2014-09-03T12:18:32Z</time>
      </trkpt>
      <trkpt lat="46.63331" lon="5.92297">
        <ele>861</ele>
        <time>2014-09-03T12:19:00Z</time>
      </trkpt>
      <trkpt lat="46.63336" lon="5.92296">
        <ele>854</ele>
        <time>2014-09-03T12:19:28Z</time>
      </trkpt>
      <trkpt lat="46.63348" lon="5.92299">
        <ele>849</ele>
        <time>2014-09-03T12:20:12Z</time>
      </trkpt>
      <trkpt lat="46.63352" lon="5.92299">
        <ele>850</ele>
        <time>2014-09-03T12:20:24Z</time>
      </trkpt>
      <trkpt lat="46.63356" lon="5.92306">
        <ele>850</ele>
        <time>2014-09-03T12:20:40Z</time>
      </trkpt>
      <trkpt lat="46.63361" lon="5.92315">
        <ele>843</ele>
        <time>2014-09-03T12:22:19Z</time>
      </trkpt>
      <trkpt lat="46.63369" lon="5.92328">
        <ele>832</ele>
        <time>2014-09-03T12:23:23Z</time>
      </trkpt>
      <trkpt lat="46.63374" lon="5.92328">
        <ele>828</ele>
        <time>2014-09-03T12:24:02Z</time>
      </trkpt>
      <trkpt lat="46.6338" lon="5.92326">
        <ele>827</ele>
        <time>2014-09-03T12:24:21Z</time>
      </trkpt>
      <trkpt lat="46.63388" lon="5.92323">
        <ele>826</ele>
        <time>2014-09-03T12:24:44Z</time>
      </trkpt>
      <trkpt lat="46.63378" lon="5.92303">
        <ele>830</ele>
        <time>2014-09-03T12:25:31Z</time>
      </trkpt>
      <trkpt lat="46.63371" lon="5.92301">
        <ele>834</ele>
        <time>2014-09-03T12:25:49Z</time>
      </trkpt>
      <trkpt lat="46.63352" lon="5.92293">
        <ele>846</ele>
        <time>2014-09-03T12:26:36Z</time>
      </trkpt>
      <trkpt lat="46.63346" lon="5.92283">
        <ele>845</ele>
        <time>2014-09-03T12:26:59Z</time>
      </trkpt>
      <trkpt lat="46.6332" lon="5.92252">
        <ele>850</ele>
        <time>2014-09-03T12:29:11Z</time>
      </trkpt>
      <trkpt lat="46.63285" lon="5.92275">
        <ele>870.6</ele>
        <time>2014-09-03T12:31:10Z</time>
      </trkpt>
      <trkpt lat="46.63263" lon="5.92256">
        <ele>844</ele>
        <time>2014-09-03T12:35:00Z</time>
      </trkpt>
      <trkpt lat="46.63286" lon="5.9222">
        <ele>849</ele>
        <time>2014-09-03T12:36:07Z</time>
      </trkpt>
      <trkpt lat="46.63314" lon="5.92212">
        <ele>830.4</ele>
        <time>2014-09-03T12:36:37Z</time>
      </trkpt>
      <trkpt lat="46.63336" lon="5.9221">
        <ele>850</ele>
        <time>2014-09-03T12:36:57Z</time>
      </trkpt>
      <trkpt lat="46.63345" lon="5.92202">
        <ele>851</ele>
        <time>2014-09-03T12:37:01Z</time>
      </trkpt>
      <trkpt lat="46.63357" lon="5.92196">
        <ele>852</ele>
        <time>2014-09-03T12:37:18Z</time>
      </trkpt>
      <trkpt lat="46.63366" lon="5.92202">
        <ele>853</ele>
        <time>2014-09-03T12:37:23Z</time>
      </trkpt>
      <trkpt lat="46.63384" lon="5.92208">
        <ele>853</ele>
        <time>2014-09-03T12:37:33Z</time>
      </trkpt>
      <trkpt lat="46.63397" lon="5.92206">
        <ele>852</ele>
        <time>2014-09-03T12:37:52Z</time>
      </trkpt>
      <trkpt lat="46.63406" lon="5.92217">
        <ele>857</ele>
        <time>2014-09-03T12:38:07Z</time>
      </trkpt>
      <trkpt lat="46.63418" lon="5.92221">
        <ele>858</ele>
        <time>2014-09-03T12:38:18Z</time>
      </trkpt>
      <trkpt lat="46.63429" lon="5.92227">
        <ele>858</ele>
        <time>2014-09-03T12:38:37Z</time>
      </trkpt>
      <trkpt lat="46.63439" lon="5.9222">
        <ele>858</ele>
        <time>2014-09-03T12:38:57Z</time>
      </trkpt>
      <trkpt lat="46.63448" lon="5.92204">
        <ele>854</ele>
        <time>2014-09-03T12:39:24Z</time>
      </trkpt>
      <trkpt lat="46.63455" lon="5.92208">
        <ele>855</ele>
        <time>2014-09-03T12:39:51Z</time>
      </trkpt>
      <trkpt lat="46.63479" lon="5.92218">
        <ele>854</ele>
        <time>2014-09-03T12:39:55Z</time>
      </trkpt>
      <trkpt lat="46.63483" lon="5.9222">
        <ele>850</ele>
        <time>2014-09-03T12:40:06Z</time>
      </trkpt>
      <trkpt lat="46.63462" lon="5.92204">
        <ele>773.1</ele>
        <time>2014-09-03T12:43:22Z</time>
      </trkpt>
      <trkpt lat="46.63434" lon="5.92148">
        <ele>773.4</ele>
        <time>2014-09-03T12:43:44Z</time>
      </trkpt>
      <trkpt lat="46.63377" lon="5.92062">
        <ele>774.2</ele>
        <time>2014-09-03T12:44:42Z</time>
      </trkpt>
      <trkpt lat="46.63357" lon="5.92008">
        <ele>777.7</ele>
        <time>2014-09-03T12:45:12Z</time>
      </trkpt>
      <trkpt lat="46.63339" lon="5.91942">
        <ele>778.2</ele>
        <time>2014-09-03T12:45:36Z</time>
      </trkpt>
      <trkpt lat="46.63304" lon="5.919">
        <ele>776.4</ele>
        <time>2014-09-03T12:46:01Z</time>
      </trkpt>
      <trkpt lat="46.6327" lon="5.91879">
        <ele>856</ele>
        <time>2014-09-03T12:48:18Z</time>
      </trkpt>
      <trkpt lat="46.63285" lon="5.91871">
        <ele>814</ele>
        <time>2014-09-03T12:49:28Z</time>
      </trkpt>
      <trkpt lat="46.63301" lon="5.91866">
        <ele>810</ele>
        <time>2014-09-03T12:49:30Z</time>
      </trkpt>
      <trkpt lat="46.63319" lon="5.91867">
        <ele>810</ele>
        <time>2014-09-03T12:49:31Z</time>
      </trkpt>
      <trkpt lat="46.63331" lon="5.91879">
        <ele>809</ele>
        <time>2014-09-03T12:49:32Z</time>
      </trkpt>
      <trkpt lat="46.63345" lon="5.91899">
        <ele>807</ele>
        <time>2014-09-03T12:49:34Z</time>
      </trkpt>
      <trkpt lat="46.63354" lon="5.91923">
        <ele>801</ele>
        <time>2014-09-03T12:49:41Z</time>
      </trkpt>
      <trkpt lat="46.63346" lon="5.91932">
        <ele>797</ele>
        <time>2014-09-03T12:49:46Z</time>
      </trkpt>
      <trkpt lat="46.63338" lon="5.91941">
        <ele>793</ele>
        <time>2014-09-03T12:49:53Z</time>
      </trkpt>
      <trkpt lat="46.63332" lon="5.91936">
        <ele>785</ele>
        <time>2014-09-03T12:50:06Z</time>
      </trkpt>
      <trkpt lat="46.63315" lon="5.9192">
        <ele>776</ele>
        <time>2014-09-03T12:50:36Z</time>
      </trkpt>
      <trkpt lat="46.63306" lon="5.91919">
        <ele>773</ele>
        <time>2014-09-03T12:50:47Z</time>
      </trkpt>
      <trkpt lat="46.63295" lon="5.91905">
        <ele>773</ele>
        <time>2014-09-03T12:51:05Z</time>
      </trkpt>
      <trkpt lat="46.63283" lon="5.91895">
        <ele>777</ele>
        <time>2014-09-03T12:51:34Z</time>
      </trkpt>
      <trkpt lat="46.63272" lon="5.91871">
        <ele>779</ele>
        <time>2014-09-03T12:51:58Z</time>
      </trkpt>
      <trkpt lat="46.63267" lon="5.9186">
        <ele>777</ele>
        <time>2014-09-03T12:52:18Z</time>
      </trkpt>
      <trkpt lat="46.63259" lon="5.91853">
        <ele>776</ele>
        <time>2014-09-03T12:52:36Z</time>
      </trkpt>
      <trkpt lat="46.6325" lon="5.9185">
        <ele>774</ele>
        <time>2014-09-03T12:52:50Z</time>
      </trkpt>
      <trkpt lat="46.63242" lon="5.91855">
        <ele>774</ele>
        <time>2014-09-03T12:53:01Z</time>
      </trkpt>
      <trkpt lat="46.63232" lon="5.91861">
        <ele>775</ele>
        <time>2014-09-03T12:53:13Z</time>
      </trkpt>
      <trkpt lat="46.63221" lon="5.91865">
        <ele>774</ele>
        <time>2014-09-03T12:53:22Z</time>
      </trkpt>
      <trkpt lat="46.63212" lon="5.91869">
        <ele>777</ele>
        <time>2014-09-03T12:53:34Z</time>
      </trkpt>
      <trkpt lat="46.63207" lon="5.91863">
        <ele>780</ele>
        <time>2014-09-03T12:54:53Z</time>
      </trkpt>
      <trkpt lat="46.63201" lon="5.91865">
        <ele>776</ele>
        <time>2014-09-03T12:55:44Z</time>
      </trkpt>
      <trkpt lat="46.63196" lon="5.91849">
        <ele>783</ele>
        <time>2014-09-03T12:56:23Z</time>
      </trkpt>
      <trkpt lat="46.63189" lon="5.91837">
        <ele>783</ele>
        <time>2014-09-03T12:56:29Z</time>
      </trkpt>
      <trkpt lat="46.63172" lon="5.91825">
        <ele>776</ele>
        <time>2014-09-03T12:56:53Z</time>
      </trkpt>
      <trkpt lat="46.63173" lon="5.91823">
        <ele>784</ele>
        <time>2014-09-03T12:57:45Z</time>
      </trkpt>
      <trkpt lat="46.63163" lon="5.91817">
        <ele>782</ele>
        <time>2014-09-03T12:58:14Z</time>
      </trkpt>
      <trkpt lat="46.63156" lon="5.91807">
        <ele>783</ele>
        <time>2014-09-03T12:58:28Z</time>
      </trkpt>
      <trkpt lat="46.6315" lon="5.91797">
        <ele>783</ele>
        <time>2014-09-03T12:58:37Z</time>
      </trkpt>
      <trkpt lat="46.63143" lon="5.91786">
        <ele>785</ele>
        <time>2014-09-03T12:58:47Z</time>
      </trkpt>
      <trkpt lat="46.63125" lon="5.91776">
        <ele>783</ele>
        <time>2014-09-03T12:59:01Z</time>
      </trkpt>
      <trkpt lat="46.63113" lon="5.91754">
        <ele>781</ele>
        <time>2014-09-03T12:59:14Z</time>
      </trkpt>
      <trkpt lat="46.63108" lon="5.91743">
        <ele>781</ele>
        <time>2014-09-03T12:59:24Z</time>
      </trkpt>
      <trkpt lat="46.63102" lon="5.9173">
        <ele>781</ele>
        <time>2014-09-03T12:59:33Z</time>
      </trkpt>
      <trkpt lat="46.63088" lon="5.91711">
        <ele>777</ele>
        <time>2014-09-03T12:59:50Z</time>
      </trkpt>
      <trkpt lat="46.63083" lon="5.91698">
        <ele>777</ele>
        <time>2014-09-03T12:59:58Z</time>
      </trkpt>
      <trkpt lat="46.63077" lon="5.91688">
        <ele>778</ele>
        <time>2014-09-03T13:00:06Z</time>
      </trkpt>
      <trkpt lat="46.63074" lon="5.91675">
        <ele>782</ele>
        <time>2014-09-03T13:00:14Z</time>
      </trkpt>
      <trkpt lat="46.63062" lon="5.91656">
        <ele>781</ele>
        <time>2014-09-03T13:00:29Z</time>
      </trkpt>
      <trkpt lat="46.63055" lon="5.91647">
        <ele>783</ele>
        <time>2014-09-03T13:00:37Z</time>
      </trkpt>
      <trkpt lat="46.63049" lon="5.91636">
        <ele>784</ele>
        <time>2014-09-03T13:00:44Z</time>
      </trkpt>
      <trkpt lat="46.63044" lon="5.91625">
        <ele>781</ele>
        <time>2014-09-03T13:00:53Z</time>
      </trkpt>
      <trkpt lat="46.63039" lon="5.91613">
        <ele>781</ele>
        <time>2014-09-03T13:01:02Z</time>
      </trkpt>
      <trkpt lat="46.63034" lon="5.91602">
        <ele>782</ele>
        <time>2014-09-03T13:01:10Z</time>
      </trkpt>
      <trkpt lat="46.63024" lon="5.91579">
        <ele>780</ele>
        <time>2014-09-03T13:01:29Z</time>
      </trkpt>
      <trkpt lat="46.63017" lon="5.91566">
        <ele>780</ele>
        <time>2014-09-03T13:01:40Z</time>
      </trkpt>
      <trkpt lat="46.63012" lon="5.91555">
        <ele>782</ele>
        <time>2014-09-03T13:01:50Z</time>
      </trkpt>
      <trkpt lat="46.62996" lon="5.91538">
        <ele>782</ele>
        <time>2014-09-03T13:02:04Z</time>
      </trkpt>
      <trkpt lat="46.6299" lon="5.91527">
        <ele>782</ele>
        <time>2014-09-03T13:02:11Z</time>
      </trkpt>
      <trkpt lat="46.62975" lon="5.91508">
        <ele>781</ele>
        <time>2014-09-03T13:02:37Z</time>
      </trkpt>
      <trkpt lat="46.62969" lon="5.91496">
        <ele>782</ele>
        <time>2014-09-03T13:02:45Z</time>
      </trkpt>
      <trkpt lat="46.62963" lon="5.91485">
        <ele>780</ele>
        <time>2014-09-03T13:02:53Z</time>
      </trkpt>
      <trkpt lat="46.62945" lon="5.91465">
        <ele>784</ele>
        <time>2014-09-03T13:03:13Z</time>
      </trkpt>
      <trkpt lat="46.62924" lon="5.91438">
        <ele>782</ele>
        <time>2014-09-03T13:03:36Z</time>
      </trkpt>
      <trkpt lat="46.62917" lon="5.91429">
        <ele>782</ele>
        <time>2014-09-03T13:03:45Z</time>
      </trkpt>
      <trkpt lat="46.62897" lon="5.91393">
        <ele>786</ele>
        <time>2014-09-03T13:04:20Z</time>
      </trkpt>
      <trkpt lat="46.62876" lon="5.91357">
        <ele>793</ele>
        <time>2014-09-03T13:04:53Z</time>
      </trkpt>
      <trkpt lat="46.62868" lon="5.9135">
        <ele>792</ele>
        <time>2014-09-03T13:04:57Z</time>
      </trkpt>
      <trkpt lat="46.62859" lon="5.91341">
        <ele>794</ele>
        <time>2014-09-03T13:05:05Z</time>
      </trkpt>
      <trkpt lat="46.6285" lon="5.91317">
        <ele>792</ele>
        <time>2014-09-03T13:05:22Z</time>
      </trkpt>
      <trkpt lat="46.62841" lon="5.91309">
        <ele>790</ele>
        <time>2014-09-03T13:05:31Z</time>
      </trkpt>
      <trkpt lat="46.62833" lon="5.91302">
        <ele>790</ele>
        <time>2014-09-03T13:05:40Z</time>
      </trkpt>
      <trkpt lat="46.6281" lon="5.9128">
        <ele>800</ele>
        <time>2014-09-03T13:06:05Z</time>
      </trkpt>
      <trkpt lat="46.62781" lon="5.91256">
        <ele>781</ele>
        <time>2014-09-03T13:06:38Z</time>
      </trkpt>
      <trkpt lat="46.62777" lon="5.91252">
        <ele>780</ele>
        <time>2014-09-03T13:06:53Z</time>
      </trkpt>
      <trkpt lat="46.62767" lon="5.91254">
        <ele>780</ele>
        <time>2014-09-03T13:07:04Z</time>
      </trkpt>
      <trkpt lat="46.62762" lon="5.91258">
        <ele>784</ele>
        <time>2014-09-03T13:07:27Z</time>
      </trkpt>
      <trkpt lat="46.62757" lon="5.91252">
        <ele>785</ele>
        <time>2014-09-03T13:07:47Z</time>
      </trkpt>
      <trkpt lat="46.62751" lon="5.91241">
        <ele>786</ele>
        <time>2014-09-03T13:07:57Z</time>
      </trkpt>
      <trkpt lat="46.62737" lon="5.91223">
        <ele>791</ele>
        <time>2014-09-03T13:08:15Z</time>
      </trkpt>
      <trkpt lat="46.62729" lon="5.91215">
        <ele>792</ele>
        <time>2014-09-03T13:08:25Z</time>
      </trkpt>
      <trkpt lat="46.62722" lon="5.91207">
        <ele>791</ele>
        <time>2014-09-03T13:08:36Z</time>
      </trkpt>
      <trkpt lat="46.62698" lon="5.91182">
        <ele>782</ele>
        <time>2014-09-03T13:09:02Z</time>
      </trkpt>
      <trkpt lat="46.62686" lon="5.91173">
        <ele>785</ele>
        <time>2014-09-03T13:09:19Z</time>
      </trkpt>
      <trkpt lat="46.62678" lon="5.91165">
        <ele>785</ele>
        <time>2014-09-03T13:09:28Z</time>
      </trkpt>
      <trkpt lat="46.62654" lon="5.91138">
        <ele>781</ele>
        <time>2014-09-03T13:09:44Z</time>
      </trkpt>
      <trkpt lat="46.62647" lon="5.91129">
        <ele>780</ele>
        <time>2014-09-03T13:09:53Z</time>
      </trkpt>
      <trkpt lat="46.62634" lon="5.91107">
        <ele>781</ele>
        <time>2014-09-03T13:10:05Z</time>
      </trkpt>
      <trkpt lat="46.62604" lon="5.91073">
        <ele>779</ele>
        <time>2014-09-03T13:10:37Z</time>
      </trkpt>
      <trkpt lat="46.62596" lon="5.91065">
        <ele>777</ele>
        <time>2014-09-03T13:10:46Z</time>
      </trkpt>
      <trkpt lat="46.62589" lon="5.91057">
        <ele>776</ele>
        <time>2014-09-03T13:10:53Z</time>
      </trkpt>
      <trkpt lat="46.62576" lon="5.91038">
        <ele>780</ele>
        <time>2014-09-03T13:11:11Z</time>
      </trkpt>
      <trkpt lat="46.62568" lon="5.91029">
        <ele>780</ele>
        <time>2014-09-03T13:11:19Z</time>
      </trkpt>
      <trkpt lat="46.62555" lon="5.91023">
        <ele>777</ele>
        <time>2014-09-03T13:11:41Z</time>
      </trkpt>
      <trkpt lat="46.62542" lon="5.91">
        <ele>780</ele>
        <time>2014-09-03T13:11:55Z</time>
      </trkpt>
      <trkpt lat="46.62535" lon="5.90991">
        <ele>780</ele>
        <time>2014-09-03T13:12:02Z</time>
      </trkpt>
      <trkpt lat="46.6252" lon="5.90971">
        <ele>779</ele>
        <time>2014-09-03T13:12:19Z</time>
      </trkpt>
      <trkpt lat="46.62515" lon="5.90958">
        <ele>781</ele>
        <time>2014-09-03T13:12:29Z</time>
      </trkpt>
      <trkpt lat="46.62509" lon="5.90946">
        <ele>781</ele>
        <time>2014-09-03T13:12:37Z</time>
      </trkpt>
      <trkpt lat="46.62503" lon="5.90936">
        <ele>782</ele>
        <time>2014-09-03T13:12:44Z</time>
      </trkpt>
      <trkpt lat="46.62495" lon="5.9093">
        <ele>782</ele>
        <time>2014-09-03T13:12:53Z</time>
      </trkpt>
      <trkpt lat="46.62487" lon="5.90923">
        <ele>783</ele>
        <time>2014-09-03T13:13:10Z</time>
      </trkpt>
      <trkpt lat="46.62472" lon="5.90904">
        <ele>785</ele>
        <time>2014-09-03T13:13:22Z</time>
      </trkpt>
      <trkpt lat="46.62439" lon="5.90874">
        <ele>782</ele>
        <time>2014-09-03T13:14:00Z</time>
      </trkpt>
      <trkpt lat="46.62426" lon="5.90866">
        <ele>784</ele>
        <time>2014-09-03T13:14:19Z</time>
      </trkpt>
      <trkpt lat="46.62405" lon="5.90838">
        <ele>789</ele>
        <time>2014-09-03T13:14:47Z</time>
      </trkpt>
      <trkpt lat="46.62379" lon="5.9082">
        <ele>789</ele>
        <time>2014-09-03T13:15:12Z</time>
      </trkpt>
      <trkpt lat="46.62371" lon="5.90809">
        <ele>791</ele>
        <time>2014-09-03T13:15:25Z</time>
      </trkpt>
      <trkpt lat="46.62358" lon="5.90799">
        <ele>782</ele>
        <time>2014-09-03T13:16:19Z</time>
      </trkpt>
      <trkpt lat="46.62348" lon="5.90788">
        <ele>784</ele>
        <time>2014-09-03T13:16:37Z</time>
      </trkpt>
      <trkpt lat="46.62329" lon="5.90782">
        <ele>792</ele>
        <time>2014-09-03T13:16:55Z</time>
      </trkpt>
      <trkpt lat="46.62327" lon="5.90774">
        <ele>789</ele>
        <time>2014-09-03T13:17:18Z</time>
      </trkpt>
      <trkpt lat="46.62318" lon="5.90773">
        <ele>793</ele>
        <time>2014-09-03T13:17:33Z</time>
      </trkpt>
      <trkpt lat="46.6231" lon="5.90768">
        <ele>793</ele>
        <time>2014-09-03T13:17:44Z</time>
      </trkpt>
      <trkpt lat="46.62301" lon="5.9076">
        <ele>794</ele>
        <time>2014-09-03T13:17:53Z</time>
      </trkpt>
      <trkpt lat="46.62294" lon="5.90752">
        <ele>793</ele>
        <time>2014-09-03T13:17:59Z</time>
      </trkpt>
      <trkpt lat="46.62273" lon="5.90726">
        <ele>782</ele>
        <time>2014-09-03T13:18:30Z</time>
      </trkpt>
      <trkpt lat="46.62266" lon="5.90717">
        <ele>784</ele>
        <time>2014-09-03T13:18:39Z</time>
      </trkpt>
      <trkpt lat="46.62254" lon="5.90697">
        <ele>780</ele>
        <time>2014-09-03T13:18:59Z</time>
      </trkpt>
      <trkpt lat="46.62246" lon="5.90689">
        <ele>781</ele>
        <time>2014-09-03T13:19:08Z</time>
      </trkpt>
      <trkpt lat="46.62239" lon="5.9068">
        <ele>783</ele>
        <time>2014-09-03T13:19:21Z</time>
      </trkpt>
      <trkpt lat="46.62226" lon="5.90659">
        <ele>783</ele>
        <time>2014-09-03T13:19:38Z</time>
      </trkpt>
      <trkpt lat="46.62215" lon="5.90637">
        <ele>778</ele>
        <time>2014-09-03T13:19:55Z</time>
      </trkpt>
      <trkpt lat="46.6221" lon="5.90625">
        <ele>780</ele>
        <time>2014-09-03T13:20:04Z</time>
      </trkpt>
      <trkpt lat="46.62205" lon="5.90612">
        <ele>780</ele>
        <time>2014-09-03T13:20:13Z</time>
      </trkpt>
      <trkpt lat="46.622" lon="5.90599">
        <ele>781</ele>
        <time>2014-09-03T13:20:23Z</time>
      </trkpt>
      <trkpt lat="46.62197" lon="5.90587">
        <ele>780</ele>
        <time>2014-09-03T13:20:33Z</time>
      </trkpt>
      <trkpt lat="46.62193" lon="5.90574">
        <ele>784</ele>
        <time>2014-09-03T13:20:45Z</time>
      </trkpt>
      <trkpt lat="46.62176" lon="5.90539">
        <ele>785</ele>
        <time>2014-09-03T13:21:12Z</time>
      </trkpt>
      <trkpt lat="46.6217" lon="5.9053">
        <ele>787</ele>
        <time>2014-09-03T13:21:21Z</time>
      </trkpt>
      <trkpt lat="46.62158" lon="5.90507">
        <ele>778</ele>
        <time>2014-09-03T13:21:39Z</time>
      </trkpt>
      <trkpt lat="46.62151" lon="5.90498">
        <ele>778</ele>
        <time>2014-09-03T13:21:48Z</time>
      </trkpt>
      <trkpt lat="46.6214" lon="5.90475">
        <ele>780</ele>
        <time>2014-09-03T13:22:08Z</time>
      </trkpt>
      <trkpt lat="46.6212" lon="5.90446">
        <ele>793</ele>
        <time>2014-09-03T13:22:39Z</time>
      </trkpt>
      <trkpt lat="46.62106" lon="5.9043">
        <ele>798</ele>
        <time>2014-09-03T13:22:58Z</time>
      </trkpt>
      <trkpt lat="46.62098" lon="5.90421">
        <ele>799</ele>
        <time>2014-09-03T13:23:06Z</time>
      </trkpt>
      <trkpt lat="46.62092" lon="5.9041">
        <ele>803</ele>
        <time>2014-09-03T13:23:18Z</time>
      </trkpt>
      <trkpt lat="46.62076" lon="5.90396">
        <ele>804</ele>
        <time>2014-09-03T13:23:39Z</time>
      </trkpt>
      <trkpt lat="46.62068" lon="5.90389">
        <ele>803</ele>
        <time>2014-09-03T13:23:49Z</time>
      </trkpt>
      <trkpt lat="46.6206" lon="5.90382">
        <ele>803</ele>
        <time>2014-09-03T13:24:03Z</time>
      </trkpt>
      <trkpt lat="46.62046" lon="5.90365">
        <ele>808</ele>
        <time>2014-09-03T13:24:21Z</time>
      </trkpt>
      <trkpt lat="46.62043" lon="5.90351">
        <ele>807</ele>
        <time>2014-09-03T13:24:31Z</time>
      </trkpt>
      <trkpt lat="46.62038" lon="5.90339">
        <ele>808</ele>
        <time>2014-09-03T13:24:42Z</time>
      </trkpt>
      <trkpt lat="46.62033" lon="5.90326">
        <ele>810</ele>
        <time>2014-09-03T13:24:52Z</time>
      </trkpt>
      <trkpt lat="46.62026" lon="5.90301">
        <ele>805</ele>
        <time>2014-09-03T13:25:17Z</time>
      </trkpt>
      <trkpt lat="46.62018" lon="5.90292">
        <ele>798</ele>
        <time>2014-09-03T13:25:27Z</time>
      </trkpt>
      <trkpt lat="46.61995" lon="5.90267">
        <ele>794</ele>
        <time>2014-09-03T13:26:01Z</time>
      </trkpt>
      <trkpt lat="46.61977" lon="5.90225">
        <ele>810</ele>
        <time>2014-09-03T13:26:29Z</time>
      </trkpt>
      <trkpt lat="46.61981" lon="5.90213">
        <ele>808</ele>
        <time>2014-09-03T13:26:41Z</time>
      </trkpt>
      <trkpt lat="46.6198" lon="5.90181">
        <ele>820</ele>
        <time>2014-09-03T13:27:02Z</time>
      </trkpt>
      <trkpt lat="46.61977" lon="5.90154">
        <ele>817</ele>
        <time>2014-09-03T13:27:21Z</time>
      </trkpt>
      <trkpt lat="46.61977" lon="5.90146">
        <ele>817</ele>
        <time>2014-09-03T13:27:28Z</time>
      </trkpt>
      <trkpt lat="46.61976" lon="5.90138">
        <ele>819</ele>
        <time>2014-09-03T13:27:34Z</time>
      </trkpt>
      <trkpt lat="46.61974" lon="5.90133">
        <ele>820</ele>
        <time>2014-09-03T13:27:41Z</time>
      </trkpt>
      <trkpt lat="46.61973" lon="5.90126">
        <ele>816</ele>
        <time>2014-09-03T13:27:52Z</time>
      </trkpt>
      <trkpt lat="46.61974" lon="5.90098">
        <ele>805</ele>
        <time>2014-09-03T13:28:09Z</time>
      </trkpt>
      <trkpt lat="46.61968" lon="5.90066">
        <ele>811</ele>
        <time>2014-09-03T13:28:36Z</time>
      </trkpt>
      <trkpt lat="46.61965" lon="5.90059">
        <ele>810</ele>
        <time>2014-09-03T13:28:41Z</time>
      </trkpt>
      <trkpt lat="46.61961" lon="5.90056">
        <ele>809</ele>
        <time>2014-09-03T13:28:44Z</time>
      </trkpt>
      <trkpt lat="46.61958" lon="5.90049">
        <ele>807</ele>
        <time>2014-09-03T13:28:49Z</time>
      </trkpt>
      <trkpt lat="46.61951" lon="5.9004">
        <ele>804</ele>
        <time>2014-09-03T13:28:59Z</time>
      </trkpt>
      <trkpt lat="46.6193" lon="5.90004">
        <ele>815</ele>
        <time>2014-09-03T13:29:28Z</time>
      </trkpt>
      <trkpt lat="46.61919" lon="5.89953">
        <ele>805</ele>
        <time>2014-09-03T13:30:01Z</time>
      </trkpt>
      <trkpt lat="46.61918" lon="5.89947">
        <ele>806</ele>
        <time>2014-09-03T13:30:07Z</time>
      </trkpt>
      <trkpt lat="46.61917" lon="5.89933">
        <ele>805</ele>
        <time>2014-09-03T13:30:15Z</time>
      </trkpt>
      <trkpt lat="46.61914" lon="5.89901">
        <ele>800</ele>
        <time>2014-09-03T13:30:34Z</time>
      </trkpt>
      <trkpt lat="46.61912" lon="5.89891">
        <ele>800</ele>
        <time>2014-09-03T13:30:38Z</time>
      </trkpt>
      <trkpt lat="46.61918" lon="5.89879">
        <ele>795</ele>
        <time>2014-09-03T13:30:45Z</time>
      </trkpt>
      <trkpt lat="46.61926" lon="5.8987">
        <ele>792</ele>
        <time>2014-09-03T13:30:52Z</time>
      </trkpt>
      <trkpt lat="46.61934" lon="5.89859">
        <ele>792</ele>
        <time>2014-09-03T13:30:59Z</time>
      </trkpt>
      <trkpt lat="46.6194" lon="5.89851">
        <ele>792</ele>
        <time>2014-09-03T13:31:10Z</time>
      </trkpt>
      <trkpt lat="46.61944" lon="5.89844">
        <ele>790</ele>
        <time>2014-09-03T13:31:21Z</time>
      </trkpt>
      <trkpt lat="46.6195" lon="5.89836">
        <ele>794</ele>
        <time>2014-09-03T13:31:41Z</time>
      </trkpt>
      <trkpt lat="46.61957" lon="5.89835">
        <ele>812</ele>
        <time>2014-09-03T13:32:47Z</time>
      </trkpt>
      <trkpt lat="46.61955" lon="5.89823">
        <ele>801</ele>
        <time>2014-09-03T13:34:05Z</time>
      </trkpt>
      <trkpt lat="46.6196" lon="5.89806">
        <ele>799</ele>
        <time>2014-09-03T13:35:15Z</time>
      </trkpt>
      <trkpt lat="46.61964" lon="5.89801">
        <ele>794</ele>
        <time>2014-09-03T13:35:29Z</time>
      </trkpt>
      <trkpt lat="46.61971" lon="5.89792">
        <ele>793</ele>
        <time>2014-09-03T13:35:41Z</time>
      </trkpt>
      <trkpt lat="46.61975" lon="5.89786">
        <ele>794</ele>
        <time>2014-09-03T13:35:45Z</time>
      </trkpt>
      <trkpt lat="46.6198" lon="5.89783">
        <ele>793</ele>
        <time>2014-09-03T13:35:50Z</time>
      </trkpt>
      <trkpt lat="46.61988" lon="5.89775">
        <ele>793</ele>
        <time>2014-09-03T13:35:59Z</time>
      </trkpt>
      <trkpt lat="46.61989" lon="5.89766">
        <ele>792</ele>
        <time>2014-09-03T13:36:07Z</time>
      </trkpt>
      <trkpt lat="46.61988" lon="5.89751">
        <ele>789</ele>
        <time>2014-09-03T13:36:14Z</time>
      </trkpt>
      <trkpt lat="46.61986" lon="5.89738">
        <ele>789</ele>
        <time>2014-09-03T13:36:25Z</time>
      </trkpt>
      <trkpt lat="46.61983" lon="5.89729">
        <ele>789</ele>
        <time>2014-09-03T13:36:34Z</time>
      </trkpt>
      <trkpt lat="46.6198" lon="5.89717">
        <ele>787</ele>
        <time>2014-09-03T13:36:42Z</time>
      </trkpt>
      <trkpt lat="46.61967" lon="5.89668">
        <ele>799</ele>
        <time>2014-09-03T13:37:12Z</time>
      </trkpt>
      <trkpt lat="46.61963" lon="5.89655">
        <ele>803</ele>
        <time>2014-09-03T13:37:21Z</time>
      </trkpt>
      <trkpt lat="46.61957" lon="5.89644">
        <ele>804</ele>
        <time>2014-09-03T13:37:30Z</time>
      </trkpt>
      <trkpt lat="46.61946" lon="5.89633">
        <ele>806</ele>
        <time>2014-09-03T13:37:45Z</time>
      </trkpt>
      <trkpt lat="46.61938" lon="5.89627">
        <ele>806</ele>
        <time>2014-09-03T13:37:55Z</time>
      </trkpt>
      <trkpt lat="46.61933" lon="5.89621">
        <ele>804</ele>
        <time>2014-09-03T13:38:02Z</time>
      </trkpt>
      <trkpt lat="46.61932" lon="5.89607">
        <ele>803</ele>
        <time>2014-09-03T13:38:10Z</time>
      </trkpt>
      <trkpt lat="46.61928" lon="5.89595">
        <ele>798</ele>
        <time>2014-09-03T13:38:17Z</time>
      </trkpt>
      <trkpt lat="46.61923" lon="5.89541">
        <ele>777</ele>
        <time>2014-09-03T13:38:53Z</time>
      </trkpt>
      <trkpt lat="46.61921" lon="5.89519">
        <ele>775</ele>
        <time>2014-09-03T13:39:05Z</time>
      </trkpt>
      <trkpt lat="46.61919" lon="5.89506">
        <ele>775</ele>
        <time>2014-09-03T13:39:14Z</time>
      </trkpt>
      <trkpt lat="46.61914" lon="5.8947">
        <ele>781</ele>
        <time>2014-09-03T13:39:36Z</time>
      </trkpt>
      <trkpt lat="46.61899" lon="5.89444">
        <ele>788</ele>
        <time>2014-09-03T13:39:59Z</time>
      </trkpt>
      <trkpt lat="46.61884" lon="5.89426">
        <ele>794</ele>
        <time>2014-09-03T13:40:18Z</time>
      </trkpt>
      <trkpt lat="46.61858" lon="5.89379">
        <ele>782</ele>
        <time>2014-09-03T13:40:58Z</time>
      </trkpt>
      <trkpt lat="46.61851" lon="5.8937">
        <ele>781</ele>
        <time>2014-09-03T13:41:06Z</time>
      </trkpt>
      <trkpt lat="46.61828" lon="5.89337">
        <ele>792</ele>
        <time>2014-09-03T13:41:36Z</time>
      </trkpt>
      <trkpt lat="46.61821" lon="5.89326">
        <ele>790</ele>
        <time>2014-09-03T13:41:47Z</time>
      </trkpt>
      <trkpt lat="46.61815" lon="5.89313">
        <ele>792</ele>
        <time>2014-09-03T13:41:56Z</time>
      </trkpt>
      <trkpt lat="46.61802" lon="5.89277">
        <ele>788</ele>
        <time>2014-09-03T13:42:29Z</time>
      </trkpt>
      <trkpt lat="46.61799" lon="5.89275">
        <ele>780</ele>
        <time>2014-09-03T13:43:15Z</time>
      </trkpt>
      <trkpt lat="46.6179" lon="5.89269">
        <ele>779</ele>
        <time>2014-09-03T13:43:18Z</time>
      </trkpt>
      <trkpt lat="46.61765" lon="5.8924">
        <ele>792</ele>
        <time>2014-09-03T13:43:46Z</time>
      </trkpt>
      <trkpt lat="46.6175" lon="5.89223">
        <ele>791</ele>
        <time>2014-09-03T13:44:04Z</time>
      </trkpt>
      <trkpt lat="46.61743" lon="5.89214">
        <ele>785</ele>
        <time>2014-09-03T13:44:17Z</time>
      </trkpt>
      <trkpt lat="46.61737" lon="5.89202">
        <ele>785</ele>
        <time>2014-09-03T13:44:26Z</time>
      </trkpt>
      <trkpt lat="46.61722" lon="5.89184">
        <ele>778</ele>
        <time>2014-09-03T13:45:00Z</time>
      </trkpt>
      <trkpt lat="46.61699" lon="5.89153">
        <ele>786</ele>
        <time>2014-09-03T13:45:38Z</time>
      </trkpt>
      <trkpt lat="46.61688" lon="5.89147">
        <ele>788</ele>
        <time>2014-09-03T13:45:46Z</time>
      </trkpt>
      <trkpt lat="46.6168" lon="5.89144">
        <ele>788</ele>
        <time>2014-09-03T13:45:53Z</time>
      </trkpt>
      <trkpt lat="46.61652" lon="5.89129">
        <ele>795</ele>
        <time>2014-09-03T13:46:19Z</time>
      </trkpt>
      <trkpt lat="46.61643" lon="5.89127">
        <ele>795</ele>
        <time>2014-09-03T13:46:27Z</time>
      </trkpt>
      <trkpt lat="46.61632" lon="5.89125">
        <ele>796</ele>
        <time>2014-09-03T13:46:36Z</time>
      </trkpt>
      <trkpt lat="46.61612" lon="5.89116">
        <ele>804</ele>
        <time>2014-09-03T13:47:28Z</time>
      </trkpt>
      <trkpt lat="46.61591" lon="5.89111">
        <ele>812</ele>
        <time>2014-09-03T13:47:49Z</time>
      </trkpt>
      <trkpt lat="46.61584" lon="5.89102">
        <ele>812</ele>
        <time>2014-09-03T13:48:00Z</time>
      </trkpt>
      <trkpt lat="46.61575" lon="5.891">
        <ele>805</ele>
        <time>2014-09-03T13:48:11Z</time>
      </trkpt>
      <trkpt lat="46.61546" lon="5.89103">
        <ele>796</ele>
        <time>2014-09-03T13:48:43Z</time>
      </trkpt>
      <trkpt lat="46.61518" lon="5.89116">
        <ele>772</ele>
        <time>2014-09-03T13:49:20Z</time>
      </trkpt>
      <trkpt lat="46.6151" lon="5.89123">
        <ele>764</ele>
        <time>2014-09-03T13:49:31Z</time>
      </trkpt>
      <trkpt lat="46.61505" lon="5.89137">
        <ele>760</ele>
        <time>2014-09-03T13:49:46Z</time>
      </trkpt>
      <trkpt lat="46.61495" lon="5.8914">
        <ele>758</ele>
        <time>2014-09-03T13:49:57Z</time>
      </trkpt>
      <trkpt lat="46.61476" lon="5.89145">
        <ele>770</ele>
        <time>2014-09-03T13:50:18Z</time>
      </trkpt>
      <trkpt lat="46.61467" lon="5.89145">
        <ele>770</ele>
        <time>2014-09-03T13:50:26Z</time>
      </trkpt>
      <trkpt lat="46.61438" lon="5.89155">
        <ele>779</ele>
        <time>2014-09-03T13:50:57Z</time>
      </trkpt>
      <trkpt lat="46.61408" lon="5.89164">
        <ele>785</ele>
        <time>2014-09-03T13:51:35Z</time>
      </trkpt>
      <trkpt lat="46.61402" lon="5.89169">
        <ele>786</ele>
        <time>2014-09-03T13:51:54Z</time>
      </trkpt>
      <trkpt lat="46.61399" lon="5.89173">
        <ele>787</ele>
        <time>2014-09-03T13:52:34Z</time>
      </trkpt>
      <trkpt lat="46.61391" lon="5.8918">
        <ele>794</ele>
        <time>2014-09-03T13:52:45Z</time>
      </trkpt>
      <trkpt lat="46.61382" lon="5.89187">
        <ele>796</ele>
        <time>2014-09-03T13:52:56Z</time>
      </trkpt>
      <trkpt lat="46.61349" lon="5.89216">
        <ele>787</ele>
        <time>2014-09-03T13:53:32Z</time>
      </trkpt>
      <trkpt lat="46.61335" lon="5.89234">
        <ele>789</ele>
        <time>2014-09-03T13:53:49Z</time>
      </trkpt>
      <trkpt lat="46.61313" lon="5.89259">
        <ele>785</ele>
        <time>2014-09-03T13:54:16Z</time>
      </trkpt>
      <trkpt lat="46.61305" lon="5.89265">
        <ele>786</ele>
        <time>2014-09-03T13:54:24Z</time>
      </trkpt>
      <trkpt lat="46.61298" lon="5.89274">
        <ele>790</ele>
        <time>2014-09-03T13:54:32Z</time>
      </trkpt>
      <trkpt lat="46.61289" lon="5.89281">
        <ele>790</ele>
        <time>2014-09-03T13:54:39Z</time>
      </trkpt>
      <trkpt lat="46.61285" lon="5.89288">
        <ele>789</ele>
        <time>2014-09-03T13:54:44Z</time>
      </trkpt>
      <trkpt lat="46.61283" lon="5.89296">
        <ele>789</ele>
        <time>2014-09-03T13:54:48Z</time>
      </trkpt>
      <trkpt lat="46.61282" lon="5.8931">
        <ele>790</ele>
        <time>2014-09-03T13:54:58Z</time>
      </trkpt>
      <trkpt lat="46.61282" lon="5.89324">
        <ele>790</ele>
        <time>2014-09-03T13:55:07Z</time>
      </trkpt>
      <trkpt lat="46.61289" lon="5.89335">
        <ele>791</ele>
        <time>2014-09-03T13:55:18Z</time>
      </trkpt>
      <trkpt lat="46.61315" lon="5.89358">
        <ele>807</ele>
        <time>2014-09-03T13:55:48Z</time>
      </trkpt>
      <trkpt lat="46.61323" lon="5.89364">
        <ele>808</ele>
        <time>2014-09-03T13:55:56Z</time>
      </trkpt>
      <trkpt lat="46.61329" lon="5.89376">
        <ele>807</ele>
        <time>2014-09-03T13:56:11Z</time>
      </trkpt>
      <trkpt lat="46.61334" lon="5.89388">
        <ele>807</ele>
        <time>2014-09-03T13:56:20Z</time>
      </trkpt>
      <trkpt lat="46.61337" lon="5.89401">
        <ele>806</ele>
        <time>2014-09-03T13:56:32Z</time>
      </trkpt>
      <trkpt lat="46.61344" lon="5.89411">
        <ele>807</ele>
        <time>2014-09-03T13:56:40Z</time>
      </trkpt>
      <trkpt lat="46.61344" lon="5.8942">
        <ele>807</ele>
        <time>2014-09-03T13:56:56Z</time>
      </trkpt>
      <trkpt lat="46.61338" lon="5.89429">
        <ele>796</ele>
        <time>2014-09-03T13:57:21Z</time>
      </trkpt>
      <trkpt lat="46.61342" lon="5.89433">
        <ele>809</ele>
        <time>2014-09-03T13:58:53Z</time>
      </trkpt>
      <trkpt lat="46.61337" lon="5.89447">
        <ele>810</ele>
        <time>2014-09-03T13:59:13Z</time>
      </trkpt>
      <trkpt lat="46.61331" lon="5.89456">
        <ele>810</ele>
        <time>2014-09-03T13:59:29Z</time>
      </trkpt>
      <trkpt lat="46.61323" lon="5.89463">
        <ele>808</ele>
        <time>2014-09-03T13:59:41Z</time>
      </trkpt>
      <trkpt lat="46.61314" lon="5.89466">
        <ele>809</ele>
        <time>2014-09-03T13:59:48Z</time>
      </trkpt>
      <trkpt lat="46.61308" lon="5.89467">
        <ele>809</ele>
        <time>2014-09-03T14:00:02Z</time>
      </trkpt>
      <trkpt lat="46.61294" lon="5.89474">
        <ele>811</ele>
        <time>2014-09-03T14:00:17Z</time>
      </trkpt>
      <trkpt lat="46.61289" lon="5.89485">
        <ele>813</ele>
        <time>2014-09-03T14:00:35Z</time>
      </trkpt>
      <trkpt lat="46.61295" lon="5.89495">
        <ele>813</ele>
        <time>2014-09-03T14:00:53Z</time>
      </trkpt>
      <trkpt lat="46.613" lon="5.89508">
        <ele>814</ele>
        <time>2014-09-03T14:01:17Z</time>
      </trkpt>
      <trkpt lat="46.61302" lon="5.89515">
        <ele>813</ele>
        <time>2014-09-03T14:01:27Z</time>
      </trkpt>
      <trkpt lat="46.61303" lon="5.89522">
        <ele>815</ele>
        <time>2014-09-03T14:01:53Z</time>
      </trkpt>
      <trkpt lat="46.61294" lon="5.89528">
        <ele>814</ele>
        <time>2014-09-03T14:03:15Z</time>
      </trkpt>
      <trkpt lat="46.61296" lon="5.89535">
        <ele>813</ele>
        <time>2014-09-03T14:03:23Z</time>
      </trkpt>
      <trkpt lat="46.61298" lon="5.89543">
        <ele>814</ele>
        <time>2014-09-03T14:03:32Z</time>
      </trkpt>
      <trkpt lat="46.61302" lon="5.89547">
        <ele>813</ele>
        <time>2014-09-03T14:03:39Z</time>
      </trkpt>
      <trkpt lat="46.61307" lon="5.89556">
        <ele>816</ele>
        <time>2014-09-03T14:03:54Z</time>
      </trkpt>
      <trkpt lat="46.61322" lon="5.89589">
        <ele>808</ele>
        <time>2014-09-03T14:04:25Z</time>
      </trkpt>
      <trkpt lat="46.61336" lon="5.89628">
        <ele>813</ele>
        <time>2014-09-03T14:05:05Z</time>
      </trkpt>
      <trkpt lat="46.61343" lon="5.89658">
        <ele>819</ele>
        <time>2014-09-03T14:05:30Z</time>
      </trkpt>
      <trkpt lat="46.61344" lon="5.89689">
        <ele>814</ele>
        <time>2014-09-03T14:05:53Z</time>
      </trkpt>
      <trkpt lat="46.61343" lon="5.89704">
        <ele>814</ele>
        <time>2014-09-03T14:06:02Z</time>
      </trkpt>
      <trkpt lat="46.61339" lon="5.89723">
        <ele>810</ele>
        <time>2014-09-03T14:06:18Z</time>
      </trkpt>
      <trkpt lat="46.61312" lon="5.89757">
        <ele>824</ele>
        <time>2014-09-03T14:06:49Z</time>
      </trkpt>
      <trkpt lat="46.61293" lon="5.89769">
        <ele>827</ele>
        <time>2014-09-03T14:07:19Z</time>
      </trkpt>
      <trkpt lat="46.61287" lon="5.89773">
        <ele>827</ele>
        <time>2014-09-03T14:07:33Z</time>
      </trkpt>
      <trkpt lat="46.61271" lon="5.89786">
        <ele>823</ele>
        <time>2014-09-03T14:07:50Z</time>
      </trkpt>
      <trkpt lat="46.61263" lon="5.89791">
        <ele>823</ele>
        <time>2014-09-03T14:08:00Z</time>
      </trkpt>
      <trkpt lat="46.61257" lon="5.89802">
        <ele>824</ele>
        <time>2014-09-03T14:08:19Z</time>
      </trkpt>
      <trkpt lat="46.61253" lon="5.89798">
        <ele>820</ele>
        <time>2014-09-03T14:09:03Z</time>
      </trkpt>
      <trkpt lat="46.61243" lon="5.89803">
        <ele>817</ele>
        <time>2014-09-03T14:09:20Z</time>
      </trkpt>
      <trkpt lat="46.61236" lon="5.89813">
        <ele>818</ele>
        <time>2014-09-03T14:09:30Z</time>
      </trkpt>
      <trkpt lat="46.61227" lon="5.89818">
        <ele>825</ele>
        <time>2014-09-03T14:09:40Z</time>
      </trkpt>
      <trkpt lat="46.6122" lon="5.89827">
        <ele>830</ele>
        <time>2014-09-03T14:09:50Z</time>
      </trkpt>
      <trkpt lat="46.61207" lon="5.89848">
        <ele>832</ele>
        <time>2014-09-03T14:10:10Z</time>
      </trkpt>
      <trkpt lat="46.61201" lon="5.89858">
        <ele>834</ele>
        <time>2014-09-03T14:10:24Z</time>
      </trkpt>
      <trkpt lat="46.61197" lon="5.8987">
        <ele>834</ele>
        <time>2014-09-03T14:10:34Z</time>
      </trkpt>
      <trkpt lat="46.61189" lon="5.89878">
        <ele>832</ele>
        <time>2014-09-03T14:10:43Z</time>
      </trkpt>
      <trkpt lat="46.6117" lon="5.89895">
        <ele>838</ele>
        <time>2014-09-03T14:11:18Z</time>
      </trkpt>
      <trkpt lat="46.61163" lon="5.89904">
        <ele>838</ele>
        <time>2014-09-03T14:11:33Z</time>
      </trkpt>
      <trkpt lat="46.61161" lon="5.89914">
        <ele>839</ele>
        <time>2014-09-03T14:11:50Z</time>
      </trkpt>
      <trkpt lat="46.61163" lon="5.8992">
        <ele>839</ele>
        <time>2014-09-03T14:12:24Z</time>
      </trkpt>
      <trkpt lat="46.6116" lon="5.89933">
        <ele>839</ele>
        <time>2014-09-03T14:12:35Z</time>
      </trkpt>
      <trkpt lat="46.61159" lon="5.89946">
        <ele>835</ele>
        <time>2014-09-03T14:12:47Z</time>
      </trkpt>
      <trkpt lat="46.61158" lon="5.8996">
        <ele>835</ele>
        <time>2014-09-03T14:12:58Z</time>
      </trkpt>
      <trkpt lat="46.61152" lon="5.89969">
        <ele>834</ele>
        <time>2014-09-03T14:13:07Z</time>
      </trkpt>
      <trkpt lat="46.61144" lon="5.90002">
        <ele>839</ele>
        <time>2014-09-03T14:13:46Z</time>
      </trkpt>
      <trkpt lat="46.61142" lon="5.90016">
        <ele>838</ele>
        <time>2014-09-03T14:13:57Z</time>
      </trkpt>
      <trkpt lat="46.61137" lon="5.90039">
        <ele>842</ele>
        <time>2014-09-03T14:14:27Z</time>
      </trkpt>
      <trkpt lat="46.6113" lon="5.9008">
        <ele>855</ele>
        <time>2014-09-03T14:15:11Z</time>
      </trkpt>
      <trkpt lat="46.61134" lon="5.90095">
        <ele>855</ele>
        <time>2014-09-03T14:15:26Z</time>
      </trkpt>
      <trkpt lat="46.61133" lon="5.90114">
        <ele>860</ele>
        <time>2014-09-03T14:15:41Z</time>
      </trkpt>
      <trkpt lat="46.61121" lon="5.90135">
        <ele>865</ele>
        <time>2014-09-03T14:16:02Z</time>
      </trkpt>
      <trkpt lat="46.61113" lon="5.90147">
        <ele>865</ele>
        <time>2014-09-03T14:16:24Z</time>
      </trkpt>
      <trkpt lat="46.61096" lon="5.90162">
        <ele>866</ele>
        <time>2014-09-03T14:16:44Z</time>
      </trkpt>
      <trkpt lat="46.6109" lon="5.90161">
        <ele>866</ele>
        <time>2014-09-03T14:17:30Z</time>
      </trkpt>
      <trkpt lat="46.61082" lon="5.90164">
        <ele>870</ele>
        <time>2014-09-03T14:17:56Z</time>
      </trkpt>
      <trkpt lat="46.61071" lon="5.90176">
        <ele>872</ele>
        <time>2014-09-03T14:18:14Z</time>
      </trkpt>
      <trkpt lat="46.61067" lon="5.90188">
        <ele>872</ele>
        <time>2014-09-03T14:18:26Z</time>
      </trkpt>
      <trkpt lat="46.61058" lon="5.90192">
        <ele>872</ele>
        <time>2014-09-03T14:18:39Z</time>
      </trkpt>
      <trkpt lat="46.61051" lon="5.902">
        <ele>873</ele>
        <time>2014-09-03T14:18:53Z</time>
      </trkpt>
      <trkpt lat="46.61042" lon="5.90204">
        <ele>868</ele>
        <time>2014-09-03T14:19:06Z</time>
      </trkpt>
      <trkpt lat="46.61034" lon="5.90212">
        <ele>867</ele>
        <time>2014-09-03T14:19:19Z</time>
      </trkpt>
      <trkpt lat="46.61006" lon="5.90228">
        <ele>876</ele>
        <time>2014-09-03T14:19:49Z</time>
      </trkpt>
      <trkpt lat="46.60998" lon="5.90235">
        <ele>875</ele>
        <time>2014-09-03T14:19:58Z</time>
      </trkpt>
      <trkpt lat="46.60983" lon="5.90252">
        <ele>879</ele>
        <time>2014-09-03T14:20:17Z</time>
      </trkpt>
      <trkpt lat="46.60976" lon="5.9026">
        <ele>879</ele>
        <time>2014-09-03T14:20:27Z</time>
      </trkpt>
      <trkpt lat="46.60964" lon="5.9027">
        <ele>882</ele>
        <time>2014-09-03T14:20:54Z</time>
      </trkpt>
      <trkpt lat="46.60945" lon="5.90275">
        <ele>884</ele>
        <time>2014-09-03T14:21:13Z</time>
      </trkpt>
      <trkpt lat="46.6094" lon="5.90278">
        <ele>883</ele>
        <time>2014-09-03T14:21:26Z</time>
      </trkpt>
      <trkpt lat="46.60938" lon="5.90286">
        <ele>882</ele>
        <time>2014-09-03T14:21:44Z</time>
      </trkpt>
      <trkpt lat="46.60929" lon="5.90294">
        <ele>882</ele>
        <time>2014-09-03T14:22:24Z</time>
      </trkpt>
      <trkpt lat="46.60925" lon="5.90306">
        <ele>882</ele>
        <time>2014-09-03T14:22:36Z</time>
      </trkpt>
      <trkpt lat="46.60922" lon="5.9031">
        <ele>881</ele>
        <time>2014-09-03T14:22:45Z</time>
      </trkpt>
      <trkpt lat="46.60911" lon="5.90325">
        <ele>884</ele>
        <time>2014-09-03T14:23:12Z</time>
      </trkpt>
      <trkpt lat="46.60908" lon="5.9033">
        <ele>884</ele>
        <time>2014-09-03T14:23:21Z</time>
      </trkpt>
      <trkpt lat="46.60902" lon="5.9034">
        <ele>884</ele>
        <time>2014-09-03T14:23:39Z</time>
      </trkpt>
      <trkpt lat="46.60896" lon="5.90351">
        <ele>890</ele>
        <time>2014-09-03T14:24:05Z</time>
      </trkpt>
      <trkpt lat="46.60895" lon="5.90359">
        <ele>891</ele>
        <time>2014-09-03T14:24:15Z</time>
      </trkpt>
      <trkpt lat="46.60897" lon="5.90381">
        <ele>887</ele>
        <time>2014-09-03T14:24:34Z</time>
      </trkpt>
      <trkpt lat="46.60908" lon="5.90401">
        <ele>883</ele>
        <time>2014-09-03T14:24:58Z</time>
      </trkpt>
      <trkpt lat="46.60924" lon="5.90415">
        <ele>886</ele>
        <time>2014-09-03T14:25:15Z</time>
      </trkpt>
      <trkpt lat="46.60959" lon="5.90421">
        <ele>897</ele>
        <time>2014-09-03T14:25:49Z</time>
      </trkpt>
    </trkseg>
  </trk>
</gpx>